<gpx creator="Cyclotour.ca" version="1.1" xmlns:gpsies="http://www.gpsies.com/GPX/1/0" xmlns:xsi="http://www.w3.org/2001/XMLSchema-instance" xmlns="http://www.topografix.com/GPX/1/1" xsi:schemaLocation="http://www.topografix.com/GPX/1/1 http://www.topografix.com/GPX/1/1/gpx.xsd http://www.gpsies.com/GPX/1/0 http://www.gpsies.com/gpsies.xsd">
<trk>
<name>Lac-à-la-Tortue, Grand-Mère, Shawinigan, Shawinigan-Sud, 59 km 2022</name>
<trkseg>
<trkpt lat="46.617810000" lon="-72.698350000">
<ele>0</ele>
<time>2026-09-04T06:29:27Z</time>
</trkpt>
<trkpt lat="46.618710000" lon="-72.699570000">
<ele>0</ele>
<time>2026-09-04T06:29:28Z</time>
</trkpt>
<trkpt lat="46.619280000" lon="-72.700430000">
<ele>0</ele>
<time>2026-09-04T06:29:29Z</time>
</trkpt>
<trkpt lat="46.619340000" lon="-72.700410000">
<ele>0</ele>
<time>2026-09-04T06:29:30Z</time>
</trkpt>
<trkpt lat="46.619340000" lon="-72.700410000">
<ele>0</ele>
<time>2026-09-04T06:29:31Z</time>
</trkpt>
<trkpt lat="46.619420000" lon="-72.700390000">
<ele>0</ele>
<time>2026-09-04T06:29:32Z</time>
</trkpt>
<trkpt lat="46.619520000" lon="-72.700380000">
<ele>0</ele>
<time>2026-09-04T06:29:33Z</time>
</trkpt>
<trkpt lat="46.619610000" lon="-72.700400000">
<ele>0</ele>
<time>2026-09-04T06:29:34Z</time>
</trkpt>
<trkpt lat="46.619700000" lon="-72.700460000">
<ele>0</ele>
<time>2026-09-04T06:29:35Z</time>
</trkpt>
<trkpt lat="46.619800000" lon="-72.700600000">
<ele>0</ele>
<time>2026-09-04T06:29:36Z</time>
</trkpt>
<trkpt lat="46.619850000" lon="-72.700810000">
<ele>0</ele>
<time>2026-09-04T06:29:37Z</time>
</trkpt>
<trkpt lat="46.619830000" lon="-72.701110000">
<ele>0</ele>
<time>2026-09-04T06:29:38Z</time>
</trkpt>
<trkpt lat="46.619780000" lon="-72.701240000">
<ele>0</ele>
<time>2026-09-04T06:29:39Z</time>
</trkpt>
<trkpt lat="46.618890000" lon="-72.702570000">
<ele>0</ele>
<time>2026-09-04T06:29:40Z</time>
</trkpt>
<trkpt lat="46.618690000" lon="-72.702890000">
<ele>0</ele>
<time>2026-09-04T06:29:41Z</time>
</trkpt>
<trkpt lat="46.618760000" lon="-72.702920000">
<ele>0</ele>
<time>2026-09-04T06:29:42Z</time>
</trkpt>
<trkpt lat="46.618760000" lon="-72.702920000">
<ele>0</ele>
<time>2026-09-04T06:29:43Z</time>
</trkpt>
<trkpt lat="46.619100000" lon="-72.703090000">
<ele>0</ele>
<time>2026-09-04T06:29:44Z</time>
</trkpt>
<trkpt lat="46.619360000" lon="-72.703190000">
<ele>0</ele>
<time>2026-09-04T06:29:45Z</time>
</trkpt>
<trkpt lat="46.619600000" lon="-72.703270000">
<ele>0</ele>
<time>2026-09-04T06:29:46Z</time>
</trkpt>
<trkpt lat="46.619970000" lon="-72.703370000">
<ele>0</ele>
<time>2026-09-04T06:29:47Z</time>
</trkpt>
<trkpt lat="46.620540000" lon="-72.703440000">
<ele>0</ele>
<time>2026-09-04T06:29:48Z</time>
</trkpt>
<trkpt lat="46.622000000" lon="-72.703550000">
<ele>0</ele>
<time>2026-09-04T06:29:49Z</time>
</trkpt>
<trkpt lat="46.622800000" lon="-72.703680000">
<ele>0</ele>
<time>2026-09-04T06:29:50Z</time>
</trkpt>
<trkpt lat="46.623400000" lon="-72.703730000">
<ele>0</ele>
<time>2026-09-04T06:29:51Z</time>
</trkpt>
<trkpt lat="46.623870000" lon="-72.703780000">
<ele>0</ele>
<time>2026-09-04T06:29:52Z</time>
</trkpt>
<trkpt lat="46.624380000" lon="-72.703830000">
<ele>0</ele>
<time>2026-09-04T06:29:53Z</time>
</trkpt>
<trkpt lat="46.625180000" lon="-72.703950000">
<ele>0</ele>
<time>2026-09-04T06:29:54Z</time>
</trkpt>
<trkpt lat="46.625600000" lon="-72.704050000">
<ele>0</ele>
<time>2026-09-04T06:29:55Z</time>
</trkpt>
<trkpt lat="46.626050000" lon="-72.704240000">
<ele>0</ele>
<time>2026-09-04T06:29:56Z</time>
</trkpt>
<trkpt lat="46.626350000" lon="-72.704410000">
<ele>0</ele>
<time>2026-09-04T06:29:57Z</time>
</trkpt>
<trkpt lat="46.626730000" lon="-72.704700000">
<ele>0</ele>
<time>2026-09-04T06:29:58Z</time>
</trkpt>
<trkpt lat="46.627070000" lon="-72.705000000">
<ele>0</ele>
<time>2026-09-04T06:29:59Z</time>
</trkpt>
<trkpt lat="46.627660000" lon="-72.705590000">
<ele>0</ele>
<time>2026-09-04T06:30:00Z</time>
</trkpt>
<trkpt lat="46.628180000" lon="-72.706350000">
<ele>0</ele>
<time>2026-09-04T06:30:01Z</time>
</trkpt>
<trkpt lat="46.628780000" lon="-72.707330000">
<ele>0</ele>
<time>2026-09-04T06:30:02Z</time>
</trkpt>
<trkpt lat="46.628900000" lon="-72.707520000">
<ele>0</ele>
<time>2026-09-04T06:30:03Z</time>
</trkpt>
<trkpt lat="46.629360000" lon="-72.708220000">
<ele>0</ele>
<time>2026-09-04T06:30:04Z</time>
</trkpt>
<trkpt lat="46.629360000" lon="-72.708220000">
<ele>0</ele>
<time>2026-09-04T06:30:05Z</time>
</trkpt>
<trkpt lat="46.630400000" lon="-72.709740000">
<ele>0</ele>
<time>2026-09-04T06:30:06Z</time>
</trkpt>
<trkpt lat="46.630920000" lon="-72.710470000">
<ele>0</ele>
<time>2026-09-04T06:30:07Z</time>
</trkpt>
<trkpt lat="46.631960000" lon="-72.711920000">
<ele>0</ele>
<time>2026-09-04T06:30:08Z</time>
</trkpt>
<trkpt lat="46.634830000" lon="-72.716020000">
<ele>0</ele>
<time>2026-09-04T06:30:09Z</time>
</trkpt>
<trkpt lat="46.635150000" lon="-72.716400000">
<ele>0</ele>
<time>2026-09-04T06:30:10Z</time>
</trkpt>
<trkpt lat="46.635400000" lon="-72.716670000">
<ele>0</ele>
<time>2026-09-04T06:30:11Z</time>
</trkpt>
<trkpt lat="46.635590000" lon="-72.716830000">
<ele>0</ele>
<time>2026-09-04T06:30:12Z</time>
</trkpt>
<trkpt lat="46.635790000" lon="-72.716970000">
<ele>0</ele>
<time>2026-09-04T06:30:13Z</time>
</trkpt>
<trkpt lat="46.636010000" lon="-72.717090000">
<ele>0</ele>
<time>2026-09-04T06:30:14Z</time>
</trkpt>
<trkpt lat="46.636530000" lon="-72.717280000">
<ele>0</ele>
<time>2026-09-04T06:30:15Z</time>
</trkpt>
<trkpt lat="46.636780000" lon="-72.717320000">
<ele>0</ele>
<time>2026-09-04T06:30:16Z</time>
</trkpt>
<trkpt lat="46.637030000" lon="-72.717340000">
<ele>0</ele>
<time>2026-09-04T06:30:17Z</time>
</trkpt>
<trkpt lat="46.637650000" lon="-72.717270000">
<ele>0</ele>
<time>2026-09-04T06:30:18Z</time>
</trkpt>
<trkpt lat="46.639080000" lon="-72.717040000">
<ele>0</ele>
<time>2026-09-04T06:30:19Z</time>
</trkpt>
<trkpt lat="46.639430000" lon="-72.716980000">
<ele>0</ele>
<time>2026-09-04T06:30:20Z</time>
</trkpt>
<trkpt lat="46.640350000" lon="-72.716730000">
<ele>0</ele>
<time>2026-09-04T06:30:21Z</time>
</trkpt>
<trkpt lat="46.640760000" lon="-72.716620000">
<ele>0</ele>
<time>2026-09-04T06:30:22Z</time>
</trkpt>
<trkpt lat="46.640760000" lon="-72.716620000">
<ele>0</ele>
<time>2026-09-04T06:30:23Z</time>
</trkpt>
<trkpt lat="46.641610000" lon="-72.716360000">
<ele>0</ele>
<time>2026-09-04T06:30:24Z</time>
</trkpt>
<trkpt lat="46.642020000" lon="-72.716200000">
<ele>0</ele>
<time>2026-09-04T06:30:25Z</time>
</trkpt>
<trkpt lat="46.642680000" lon="-72.715930000">
<ele>0</ele>
<time>2026-09-04T06:30:26Z</time>
</trkpt>
<trkpt lat="46.643390000" lon="-72.715600000">
<ele>0</ele>
<time>2026-09-04T06:30:27Z</time>
</trkpt>
<trkpt lat="46.645110000" lon="-72.714810000">
<ele>0</ele>
<time>2026-09-04T06:30:28Z</time>
</trkpt>
<trkpt lat="46.647620000" lon="-72.713630000">
<ele>0</ele>
<time>2026-09-04T06:30:29Z</time>
</trkpt>
<trkpt lat="46.647640000" lon="-72.713750000">
<ele>0</ele>
<time>2026-09-04T06:30:30Z</time>
</trkpt>
<trkpt lat="46.647640000" lon="-72.713750000">
<ele>0</ele>
<time>2026-09-04T06:30:31Z</time>
</trkpt>
<trkpt lat="46.647650000" lon="-72.713890000">
<ele>0</ele>
<time>2026-09-04T06:30:32Z</time>
</trkpt>
<trkpt lat="46.647640000" lon="-72.714040000">
<ele>0</ele>
<time>2026-09-04T06:30:33Z</time>
</trkpt>
<trkpt lat="46.647600000" lon="-72.714160000">
<ele>0</ele>
<time>2026-09-04T06:30:34Z</time>
</trkpt>
<trkpt lat="46.647490000" lon="-72.714330000">
<ele>0</ele>
<time>2026-09-04T06:30:35Z</time>
</trkpt>
<trkpt lat="46.646750000" lon="-72.715360000">
<ele>0</ele>
<time>2026-09-04T06:30:36Z</time>
</trkpt>
<trkpt lat="46.646470000" lon="-72.715810000">
<ele>0</ele>
<time>2026-09-04T06:30:37Z</time>
</trkpt>
<trkpt lat="46.646360000" lon="-72.716010000">
<ele>0</ele>
<time>2026-09-04T06:30:38Z</time>
</trkpt>
<trkpt lat="46.646300000" lon="-72.716260000">
<ele>0</ele>
<time>2026-09-04T06:30:39Z</time>
</trkpt>
<trkpt lat="46.646280000" lon="-72.716520000">
<ele>0</ele>
<time>2026-09-04T06:30:40Z</time>
</trkpt>
<trkpt lat="46.646200000" lon="-72.717070000">
<ele>0</ele>
<time>2026-09-04T06:30:41Z</time>
</trkpt>
<trkpt lat="46.646030000" lon="-72.717750000">
<ele>0</ele>
<time>2026-09-04T06:30:42Z</time>
</trkpt>
<trkpt lat="46.646010000" lon="-72.718010000">
<ele>0</ele>
<time>2026-09-04T06:30:43Z</time>
</trkpt>
<trkpt lat="46.645920000" lon="-72.718540000">
<ele>0</ele>
<time>2026-09-04T06:30:44Z</time>
</trkpt>
<trkpt lat="46.645860000" lon="-72.718710000">
<ele>0</ele>
<time>2026-09-04T06:30:45Z</time>
</trkpt>
<trkpt lat="46.645770000" lon="-72.718800000">
<ele>0</ele>
<time>2026-09-04T06:30:46Z</time>
</trkpt>
<trkpt lat="46.645650000" lon="-72.718890000">
<ele>0</ele>
<time>2026-09-04T06:30:47Z</time>
</trkpt>
<trkpt lat="46.645520000" lon="-72.718950000">
<ele>0</ele>
<time>2026-09-04T06:30:48Z</time>
</trkpt>
<trkpt lat="46.645370000" lon="-72.718970000">
<ele>0</ele>
<time>2026-09-04T06:30:49Z</time>
</trkpt>
<trkpt lat="46.644690000" lon="-72.718880000">
<ele>0</ele>
<time>2026-09-04T06:30:50Z</time>
</trkpt>
<trkpt lat="46.644380000" lon="-72.718830000">
<ele>0</ele>
<time>2026-09-04T06:30:51Z</time>
</trkpt>
<trkpt lat="46.644380000" lon="-72.718830000">
<ele>0</ele>
<time>2026-09-04T06:30:52Z</time>
</trkpt>
<trkpt lat="46.644060000" lon="-72.718820000">
<ele>0</ele>
<time>2026-09-04T06:30:53Z</time>
</trkpt>
<trkpt lat="46.643870000" lon="-72.718860000">
<ele>0</ele>
<time>2026-09-04T06:30:54Z</time>
</trkpt>
<trkpt lat="46.643620000" lon="-72.719040000">
<ele>0</ele>
<time>2026-09-04T06:30:55Z</time>
</trkpt>
<trkpt lat="46.643390000" lon="-72.719230000">
<ele>0</ele>
<time>2026-09-04T06:30:56Z</time>
</trkpt>
<trkpt lat="46.643150000" lon="-72.719450000">
<ele>0</ele>
<time>2026-09-04T06:30:57Z</time>
</trkpt>
<trkpt lat="46.642920000" lon="-72.719550000">
<ele>0</ele>
<time>2026-09-04T06:30:58Z</time>
</trkpt>
<trkpt lat="46.642560000" lon="-72.719660000">
<ele>0</ele>
<time>2026-09-04T06:30:59Z</time>
</trkpt>
<trkpt lat="46.641680000" lon="-72.719900000">
<ele>0</ele>
<time>2026-09-04T06:31:00Z</time>
</trkpt>
<trkpt lat="46.640970000" lon="-72.720060000">
<ele>0</ele>
<time>2026-09-04T06:31:01Z</time>
</trkpt>
<trkpt lat="46.640440000" lon="-72.720160000">
<ele>0</ele>
<time>2026-09-04T06:31:02Z</time>
</trkpt>
<trkpt lat="46.639740000" lon="-72.720240000">
<ele>0</ele>
<time>2026-09-04T06:31:03Z</time>
</trkpt>
<trkpt lat="46.639340000" lon="-72.720370000">
<ele>0</ele>
<time>2026-09-04T06:31:04Z</time>
</trkpt>
<trkpt lat="46.639050000" lon="-72.720500000">
<ele>0</ele>
<time>2026-09-04T06:31:05Z</time>
</trkpt>
<trkpt lat="46.638370000" lon="-72.720980000">
<ele>0</ele>
<time>2026-09-04T06:31:06Z</time>
</trkpt>
<trkpt lat="46.637800000" lon="-72.721390000">
<ele>0</ele>
<time>2026-09-04T06:31:07Z</time>
</trkpt>
<trkpt lat="46.637470000" lon="-72.721580000">
<ele>0</ele>
<time>2026-09-04T06:31:08Z</time>
</trkpt>
<trkpt lat="46.636940000" lon="-72.721780000">
<ele>0</ele>
<time>2026-09-04T06:31:09Z</time>
</trkpt>
<trkpt lat="46.634580000" lon="-72.722550000">
<ele>0</ele>
<time>2026-09-04T06:31:10Z</time>
</trkpt>
<trkpt lat="46.632120000" lon="-72.723350000">
<ele>0</ele>
<time>2026-09-04T06:31:11Z</time>
</trkpt>
<trkpt lat="46.630650000" lon="-72.723800000">
<ele>0</ele>
<time>2026-09-04T06:31:12Z</time>
</trkpt>
<trkpt lat="46.626620000" lon="-72.725120000">
<ele>0</ele>
<time>2026-09-04T06:31:13Z</time>
</trkpt>
<trkpt lat="46.625570000" lon="-72.725490000">
<ele>0</ele>
<time>2026-09-04T06:31:14Z</time>
</trkpt>
<trkpt lat="46.623130000" lon="-72.726400000">
<ele>0</ele>
<time>2026-09-04T06:31:15Z</time>
</trkpt>
<trkpt lat="46.621900000" lon="-72.726850000">
<ele>0</ele>
<time>2026-09-04T06:31:16Z</time>
</trkpt>
<trkpt lat="46.621430000" lon="-72.727040000">
<ele>0</ele>
<time>2026-09-04T06:31:17Z</time>
</trkpt>
<trkpt lat="46.621220000" lon="-72.727180000">
<ele>0</ele>
<time>2026-09-04T06:31:18Z</time>
</trkpt>
<trkpt lat="46.621060000" lon="-72.727300000">
<ele>0</ele>
<time>2026-09-04T06:31:19Z</time>
</trkpt>
<trkpt lat="46.620910000" lon="-72.727440000">
<ele>0</ele>
<time>2026-09-04T06:31:20Z</time>
</trkpt>
<trkpt lat="46.620620000" lon="-72.727760000">
<ele>0</ele>
<time>2026-09-04T06:31:21Z</time>
</trkpt>
<trkpt lat="46.620400000" lon="-72.728080000">
<ele>0</ele>
<time>2026-09-04T06:31:22Z</time>
</trkpt>
<trkpt lat="46.620220000" lon="-72.728370000">
<ele>0</ele>
<time>2026-09-04T06:31:23Z</time>
</trkpt>
<trkpt lat="46.619740000" lon="-72.729140000">
<ele>0</ele>
<time>2026-09-04T06:31:24Z</time>
</trkpt>
<trkpt lat="46.618020000" lon="-72.731850000">
<ele>0</ele>
<time>2026-09-04T06:31:25Z</time>
</trkpt>
<trkpt lat="46.617320000" lon="-72.732870000">
<ele>0</ele>
<time>2026-09-04T06:31:26Z</time>
</trkpt>
<trkpt lat="46.616070000" lon="-72.734790000">
<ele>0</ele>
<time>2026-09-04T06:31:27Z</time>
</trkpt>
<trkpt lat="46.614460000" lon="-72.737320000">
<ele>0</ele>
<time>2026-09-04T06:31:28Z</time>
</trkpt>
<trkpt lat="46.614310000" lon="-72.737580000">
<ele>0</ele>
<time>2026-09-04T06:31:29Z</time>
</trkpt>
<trkpt lat="46.613940000" lon="-72.738150000">
<ele>0</ele>
<time>2026-09-04T06:31:30Z</time>
</trkpt>
<trkpt lat="46.613810000" lon="-72.738330000">
<ele>0</ele>
<time>2026-09-04T06:31:31Z</time>
</trkpt>
<trkpt lat="46.613240000" lon="-72.738980000">
<ele>0</ele>
<time>2026-09-04T06:31:32Z</time>
</trkpt>
<trkpt lat="46.612110000" lon="-72.740170000">
<ele>0</ele>
<time>2026-09-04T06:31:33Z</time>
</trkpt>
<trkpt lat="46.611090000" lon="-72.741240000">
<ele>0</ele>
<time>2026-09-04T06:31:34Z</time>
</trkpt>
<trkpt lat="46.608480000" lon="-72.743920000">
<ele>0</ele>
<time>2026-09-04T06:31:35Z</time>
</trkpt>
<trkpt lat="46.608160000" lon="-72.744280000">
<ele>0</ele>
<time>2026-09-04T06:31:36Z</time>
</trkpt>
<trkpt lat="46.605720000" lon="-72.747140000">
<ele>0</ele>
<time>2026-09-04T06:31:37Z</time>
</trkpt>
<trkpt lat="46.605190000" lon="-72.747720000">
<ele>0</ele>
<time>2026-09-04T06:31:38Z</time>
</trkpt>
<trkpt lat="46.604880000" lon="-72.747970000">
<ele>0</ele>
<time>2026-09-04T06:31:39Z</time>
</trkpt>
<trkpt lat="46.604570000" lon="-72.748180000">
<ele>0</ele>
<time>2026-09-04T06:31:40Z</time>
</trkpt>
<trkpt lat="46.604310000" lon="-72.748310000">
<ele>0</ele>
<time>2026-09-04T06:31:41Z</time>
</trkpt>
<trkpt lat="46.604100000" lon="-72.748380000">
<ele>0</ele>
<time>2026-09-04T06:31:42Z</time>
</trkpt>
<trkpt lat="46.603500000" lon="-72.748540000">
<ele>0</ele>
<time>2026-09-04T06:31:43Z</time>
</trkpt>
<trkpt lat="46.602780000" lon="-72.748630000">
<ele>0</ele>
<time>2026-09-04T06:31:44Z</time>
</trkpt>
<trkpt lat="46.601710000" lon="-72.748720000">
<ele>0</ele>
<time>2026-09-04T06:31:45Z</time>
</trkpt>
<trkpt lat="46.601210000" lon="-72.748830000">
<ele>0</ele>
<time>2026-09-04T06:31:46Z</time>
</trkpt>
<trkpt lat="46.600440000" lon="-72.749160000">
<ele>0</ele>
<time>2026-09-04T06:31:47Z</time>
</trkpt>
<trkpt lat="46.599300000" lon="-72.749730000">
<ele>0</ele>
<time>2026-09-04T06:31:48Z</time>
</trkpt>
<trkpt lat="46.598310000" lon="-72.750250000">
<ele>0</ele>
<time>2026-09-04T06:31:49Z</time>
</trkpt>
<trkpt lat="46.597830000" lon="-72.750520000">
<ele>0</ele>
<time>2026-09-04T06:31:50Z</time>
</trkpt>
<trkpt lat="46.597370000" lon="-72.750830000">
<ele>0</ele>
<time>2026-09-04T06:31:51Z</time>
</trkpt>
<trkpt lat="46.597090000" lon="-72.751060000">
<ele>0</ele>
<time>2026-09-04T06:31:52Z</time>
</trkpt>
<trkpt lat="46.596880000" lon="-72.751290000">
<ele>0</ele>
<time>2026-09-04T06:31:53Z</time>
</trkpt>
<trkpt lat="46.596480000" lon="-72.751960000">
<ele>0</ele>
<time>2026-09-04T06:31:54Z</time>
</trkpt>
<trkpt lat="46.596430000" lon="-72.752130000">
<ele>0</ele>
<time>2026-09-04T06:31:55Z</time>
</trkpt>
<trkpt lat="46.596200000" lon="-72.752570000">
<ele>0</ele>
<time>2026-09-04T06:31:56Z</time>
</trkpt>
<trkpt lat="46.595950000" lon="-72.753010000">
<ele>0</ele>
<time>2026-09-04T06:31:57Z</time>
</trkpt>
<trkpt lat="46.595680000" lon="-72.753390000">
<ele>0</ele>
<time>2026-09-04T06:31:58Z</time>
</trkpt>
<trkpt lat="46.595350000" lon="-72.753710000">
<ele>0</ele>
<time>2026-09-04T06:31:59Z</time>
</trkpt>
<trkpt lat="46.595060000" lon="-72.753940000">
<ele>0</ele>
<time>2026-09-04T06:32:00Z</time>
</trkpt>
<trkpt lat="46.594690000" lon="-72.754080000">
<ele>0</ele>
<time>2026-09-04T06:32:01Z</time>
</trkpt>
<trkpt lat="46.594460000" lon="-72.754130000">
<ele>0</ele>
<time>2026-09-04T06:32:02Z</time>
</trkpt>
<trkpt lat="46.594120000" lon="-72.754140000">
<ele>0</ele>
<time>2026-09-04T06:32:03Z</time>
</trkpt>
<trkpt lat="46.593070000" lon="-72.754140000">
<ele>0</ele>
<time>2026-09-04T06:32:04Z</time>
</trkpt>
<trkpt lat="46.592690000" lon="-72.754140000">
<ele>0</ele>
<time>2026-09-04T06:32:05Z</time>
</trkpt>
<trkpt lat="46.592300000" lon="-72.754170000">
<ele>0</ele>
<time>2026-09-04T06:32:06Z</time>
</trkpt>
<trkpt lat="46.592050000" lon="-72.754250000">
<ele>0</ele>
<time>2026-09-04T06:32:07Z</time>
</trkpt>
<trkpt lat="46.591650000" lon="-72.754410000">
<ele>0</ele>
<time>2026-09-04T06:32:08Z</time>
</trkpt>
<trkpt lat="46.591310000" lon="-72.754570000">
<ele>0</ele>
<time>2026-09-04T06:32:09Z</time>
</trkpt>
<trkpt lat="46.590320000" lon="-72.755010000">
<ele>0</ele>
<time>2026-09-04T06:32:10Z</time>
</trkpt>
<trkpt lat="46.589370000" lon="-72.755390000">
<ele>0</ele>
<time>2026-09-04T06:32:11Z</time>
</trkpt>
<trkpt lat="46.588880000" lon="-72.755550000">
<ele>0</ele>
<time>2026-09-04T06:32:12Z</time>
</trkpt>
<trkpt lat="46.587570000" lon="-72.755960000">
<ele>0</ele>
<time>2026-09-04T06:32:13Z</time>
</trkpt>
<trkpt lat="46.586380000" lon="-72.756330000">
<ele>0</ele>
<time>2026-09-04T06:32:14Z</time>
</trkpt>
<trkpt lat="46.586380000" lon="-72.756330000">
<ele>0</ele>
<time>2026-09-04T06:32:15Z</time>
</trkpt>
<trkpt lat="46.585820000" lon="-72.756530000">
<ele>0</ele>
<time>2026-09-04T06:32:16Z</time>
</trkpt>
<trkpt lat="46.585020000" lon="-72.756840000">
<ele>0</ele>
<time>2026-09-04T06:32:17Z</time>
</trkpt>
<trkpt lat="46.584100000" lon="-72.757270000">
<ele>0</ele>
<time>2026-09-04T06:32:18Z</time>
</trkpt>
<trkpt lat="46.583680000" lon="-72.757540000">
<ele>0</ele>
<time>2026-09-04T06:32:19Z</time>
</trkpt>
<trkpt lat="46.583590000" lon="-72.757400000">
<ele>0</ele>
<time>2026-09-04T06:32:20Z</time>
</trkpt>
<trkpt lat="46.583590000" lon="-72.757400000">
<ele>0</ele>
<time>2026-09-04T06:32:21Z</time>
</trkpt>
<trkpt lat="46.583440000" lon="-72.757160000">
<ele>0</ele>
<time>2026-09-04T06:32:22Z</time>
</trkpt>
<trkpt lat="46.583390000" lon="-72.757080000">
<ele>0</ele>
<time>2026-09-04T06:32:23Z</time>
</trkpt>
<trkpt lat="46.583380000" lon="-72.756990000">
<ele>0</ele>
<time>2026-09-04T06:32:24Z</time>
</trkpt>
<trkpt lat="46.583400000" lon="-72.756830000">
<ele>0</ele>
<time>2026-09-04T06:32:25Z</time>
</trkpt>
<trkpt lat="46.583420000" lon="-72.756610000">
<ele>0</ele>
<time>2026-09-04T06:32:26Z</time>
</trkpt>
<trkpt lat="46.583320000" lon="-72.756510000">
<ele>0</ele>
<time>2026-09-04T06:32:27Z</time>
</trkpt>
<trkpt lat="46.583160000" lon="-72.756320000">
<ele>0</ele>
<time>2026-09-04T06:32:28Z</time>
</trkpt>
<trkpt lat="46.583100000" lon="-72.756190000">
<ele>0</ele>
<time>2026-09-04T06:32:29Z</time>
</trkpt>
<trkpt lat="46.583010000" lon="-72.755900000">
<ele>0</ele>
<time>2026-09-04T06:32:30Z</time>
</trkpt>
<trkpt lat="46.582810000" lon="-72.755380000">
<ele>0</ele>
<time>2026-09-04T06:32:31Z</time>
</trkpt>
<trkpt lat="46.582430000" lon="-72.754570000">
<ele>0</ele>
<time>2026-09-04T06:32:32Z</time>
</trkpt>
<trkpt lat="46.582270000" lon="-72.754240000">
<ele>0</ele>
<time>2026-09-04T06:32:33Z</time>
</trkpt>
<trkpt lat="46.582210000" lon="-72.754170000">
<ele>0</ele>
<time>2026-09-04T06:32:34Z</time>
</trkpt>
<trkpt lat="46.582070000" lon="-72.754000000">
<ele>0</ele>
<time>2026-09-04T06:32:35Z</time>
</trkpt>
<trkpt lat="46.581900000" lon="-72.753780000">
<ele>0</ele>
<time>2026-09-04T06:32:36Z</time>
</trkpt>
<trkpt lat="46.581630000" lon="-72.753690000">
<ele>0</ele>
<time>2026-09-04T06:32:37Z</time>
</trkpt>
<trkpt lat="46.581250000" lon="-72.753510000">
<ele>0</ele>
<time>2026-09-04T06:32:38Z</time>
</trkpt>
<trkpt lat="46.581030000" lon="-72.753430000">
<ele>0</ele>
<time>2026-09-04T06:32:39Z</time>
</trkpt>
<trkpt lat="46.580940000" lon="-72.753330000">
<ele>0</ele>
<time>2026-09-04T06:32:40Z</time>
</trkpt>
<trkpt lat="46.580660000" lon="-72.753150000">
<ele>0</ele>
<time>2026-09-04T06:32:41Z</time>
</trkpt>
<trkpt lat="46.580450000" lon="-72.753140000">
<ele>0</ele>
<time>2026-09-04T06:32:42Z</time>
</trkpt>
<trkpt lat="46.580230000" lon="-72.753090000">
<ele>0</ele>
<time>2026-09-04T06:32:43Z</time>
</trkpt>
<trkpt lat="46.579970000" lon="-72.753010000">
<ele>0</ele>
<time>2026-09-04T06:32:44Z</time>
</trkpt>
<trkpt lat="46.579760000" lon="-72.753000000">
<ele>0</ele>
<time>2026-09-04T06:32:45Z</time>
</trkpt>
<trkpt lat="46.579600000" lon="-72.752950000">
<ele>0</ele>
<time>2026-09-04T06:32:46Z</time>
</trkpt>
<trkpt lat="46.579360000" lon="-72.752820000">
<ele>0</ele>
<time>2026-09-04T06:32:47Z</time>
</trkpt>
<trkpt lat="46.579060000" lon="-72.752540000">
<ele>0</ele>
<time>2026-09-04T06:32:48Z</time>
</trkpt>
<trkpt lat="46.578780000" lon="-72.752500000">
<ele>0</ele>
<time>2026-09-04T06:32:49Z</time>
</trkpt>
<trkpt lat="46.578570000" lon="-72.752530000">
<ele>0</ele>
<time>2026-09-04T06:32:50Z</time>
</trkpt>
<trkpt lat="46.578460000" lon="-72.752580000">
<ele>0</ele>
<time>2026-09-04T06:32:51Z</time>
</trkpt>
<trkpt lat="46.578310000" lon="-72.752650000">
<ele>0</ele>
<time>2026-09-04T06:32:52Z</time>
</trkpt>
<trkpt lat="46.578100000" lon="-72.752680000">
<ele>0</ele>
<time>2026-09-04T06:32:53Z</time>
</trkpt>
<trkpt lat="46.577890000" lon="-72.752650000">
<ele>0</ele>
<time>2026-09-04T06:32:54Z</time>
</trkpt>
<trkpt lat="46.577760000" lon="-72.752600000">
<ele>0</ele>
<time>2026-09-04T06:32:55Z</time>
</trkpt>
<trkpt lat="46.577500000" lon="-72.752530000">
<ele>0</ele>
<time>2026-09-04T06:32:56Z</time>
</trkpt>
<trkpt lat="46.577360000" lon="-72.752630000">
<ele>0</ele>
<time>2026-09-04T06:32:57Z</time>
</trkpt>
<trkpt lat="46.577240000" lon="-72.752740000">
<ele>0</ele>
<time>2026-09-04T06:32:58Z</time>
</trkpt>
<trkpt lat="46.577080000" lon="-72.752760000">
<ele>0</ele>
<time>2026-09-04T06:32:59Z</time>
</trkpt>
<trkpt lat="46.576980000" lon="-72.752680000">
<ele>0</ele>
<time>2026-09-04T06:33:00Z</time>
</trkpt>
<trkpt lat="46.576880000" lon="-72.752490000">
<ele>0</ele>
<time>2026-09-04T06:33:01Z</time>
</trkpt>
<trkpt lat="46.576790000" lon="-72.752380000">
<ele>0</ele>
<time>2026-09-04T06:33:02Z</time>
</trkpt>
<trkpt lat="46.576480000" lon="-72.752340000">
<ele>0</ele>
<time>2026-09-04T06:33:03Z</time>
</trkpt>
<trkpt lat="46.576300000" lon="-72.752280000">
<ele>0</ele>
<time>2026-09-04T06:33:04Z</time>
</trkpt>
<trkpt lat="46.576120000" lon="-72.752260000">
<ele>0</ele>
<time>2026-09-04T06:33:05Z</time>
</trkpt>
<trkpt lat="46.575610000" lon="-72.752390000">
<ele>0</ele>
<time>2026-09-04T06:33:06Z</time>
</trkpt>
<trkpt lat="46.575420000" lon="-72.752280000">
<ele>0</ele>
<time>2026-09-04T06:33:07Z</time>
</trkpt>
<trkpt lat="46.575210000" lon="-72.752260000">
<ele>0</ele>
<time>2026-09-04T06:33:08Z</time>
</trkpt>
<trkpt lat="46.574810000" lon="-72.752290000">
<ele>0</ele>
<time>2026-09-04T06:33:09Z</time>
</trkpt>
<trkpt lat="46.574310000" lon="-72.752340000">
<ele>0</ele>
<time>2026-09-04T06:33:10Z</time>
</trkpt>
<trkpt lat="46.573960000" lon="-72.752380000">
<ele>0</ele>
<time>2026-09-04T06:33:11Z</time>
</trkpt>
<trkpt lat="46.573630000" lon="-72.752460000">
<ele>0</ele>
<time>2026-09-04T06:33:12Z</time>
</trkpt>
<trkpt lat="46.573280000" lon="-72.752580000">
<ele>0</ele>
<time>2026-09-04T06:33:13Z</time>
</trkpt>
<trkpt lat="46.573110000" lon="-72.752660000">
<ele>0</ele>
<time>2026-09-04T06:33:14Z</time>
</trkpt>
<trkpt lat="46.572950000" lon="-72.752780000">
<ele>0</ele>
<time>2026-09-04T06:33:15Z</time>
</trkpt>
<trkpt lat="46.572750000" lon="-72.752960000">
<ele>0</ele>
<time>2026-09-04T06:33:16Z</time>
</trkpt>
<trkpt lat="46.572450000" lon="-72.753330000">
<ele>0</ele>
<time>2026-09-04T06:33:17Z</time>
</trkpt>
<trkpt lat="46.571910000" lon="-72.753730000">
<ele>0</ele>
<time>2026-09-04T06:33:18Z</time>
</trkpt>
<trkpt lat="46.571560000" lon="-72.753960000">
<ele>0</ele>
<time>2026-09-04T06:33:19Z</time>
</trkpt>
<trkpt lat="46.571360000" lon="-72.754090000">
<ele>0</ele>
<time>2026-09-04T06:33:20Z</time>
</trkpt>
<trkpt lat="46.571220000" lon="-72.754140000">
<ele>0</ele>
<time>2026-09-04T06:33:21Z</time>
</trkpt>
<trkpt lat="46.571050000" lon="-72.754130000">
<ele>0</ele>
<time>2026-09-04T06:33:22Z</time>
</trkpt>
<trkpt lat="46.570870000" lon="-72.754080000">
<ele>0</ele>
<time>2026-09-04T06:33:23Z</time>
</trkpt>
<trkpt lat="46.570420000" lon="-72.753870000">
<ele>0</ele>
<time>2026-09-04T06:33:24Z</time>
</trkpt>
<trkpt lat="46.569970000" lon="-72.753710000">
<ele>0</ele>
<time>2026-09-04T06:33:25Z</time>
</trkpt>
<trkpt lat="46.569800000" lon="-72.753640000">
<ele>0</ele>
<time>2026-09-04T06:33:26Z</time>
</trkpt>
<trkpt lat="46.569630000" lon="-72.753540000">
<ele>0</ele>
<time>2026-09-04T06:33:27Z</time>
</trkpt>
<trkpt lat="46.569300000" lon="-72.753400000">
<ele>0</ele>
<time>2026-09-04T06:33:28Z</time>
</trkpt>
<trkpt lat="46.569030000" lon="-72.753390000">
<ele>0</ele>
<time>2026-09-04T06:33:29Z</time>
</trkpt>
<trkpt lat="46.568890000" lon="-72.753490000">
<ele>0</ele>
<time>2026-09-04T06:33:30Z</time>
</trkpt>
<trkpt lat="46.568630000" lon="-72.753940000">
<ele>0</ele>
<time>2026-09-04T06:33:31Z</time>
</trkpt>
<trkpt lat="46.568520000" lon="-72.754210000">
<ele>0</ele>
<time>2026-09-04T06:33:32Z</time>
</trkpt>
<trkpt lat="46.568450000" lon="-72.754790000">
<ele>0</ele>
<time>2026-09-04T06:33:33Z</time>
</trkpt>
<trkpt lat="46.568390000" lon="-72.755110000">
<ele>0</ele>
<time>2026-09-04T06:33:34Z</time>
</trkpt>
<trkpt lat="46.568200000" lon="-72.755850000">
<ele>0</ele>
<time>2026-09-04T06:33:35Z</time>
</trkpt>
<trkpt lat="46.568080000" lon="-72.756220000">
<ele>0</ele>
<time>2026-09-04T06:33:36Z</time>
</trkpt>
<trkpt lat="46.567920000" lon="-72.756410000">
<ele>0</ele>
<time>2026-09-04T06:33:37Z</time>
</trkpt>
<trkpt lat="46.567720000" lon="-72.756660000">
<ele>0</ele>
<time>2026-09-04T06:33:38Z</time>
</trkpt>
<trkpt lat="46.567620000" lon="-72.756650000">
<ele>0</ele>
<time>2026-09-04T06:33:39Z</time>
</trkpt>
<trkpt lat="46.567260000" lon="-72.756620000">
<ele>0</ele>
<time>2026-09-04T06:33:40Z</time>
</trkpt>
<trkpt lat="46.567060000" lon="-72.756550000">
<ele>0</ele>
<time>2026-09-04T06:33:41Z</time>
</trkpt>
<trkpt lat="46.566940000" lon="-72.756430000">
<ele>0</ele>
<time>2026-09-04T06:33:43Z</time>
</trkpt>
<trkpt lat="46.566650000" lon="-72.756110000">
<ele>0</ele>
<time>2026-09-04T06:33:44Z</time>
</trkpt>
<trkpt lat="46.566380000" lon="-72.755760000">
<ele>0</ele>
<time>2026-09-04T06:33:45Z</time>
</trkpt>
<trkpt lat="46.566320000" lon="-72.755520000">
<ele>0</ele>
<time>2026-09-04T06:33:46Z</time>
</trkpt>
<trkpt lat="46.566090000" lon="-72.755160000">
<ele>0</ele>
<time>2026-09-04T06:33:47Z</time>
</trkpt>
<trkpt lat="46.565900000" lon="-72.754880000">
<ele>0</ele>
<time>2026-09-04T06:33:48Z</time>
</trkpt>
<trkpt lat="46.565800000" lon="-72.754860000">
<ele>0</ele>
<time>2026-09-04T06:33:49Z</time>
</trkpt>
<trkpt lat="46.565610000" lon="-72.754880000">
<ele>0</ele>
<time>2026-09-04T06:33:50Z</time>
</trkpt>
<trkpt lat="46.565430000" lon="-72.754930000">
<ele>0</ele>
<time>2026-09-04T06:33:51Z</time>
</trkpt>
<trkpt lat="46.565260000" lon="-72.754970000">
<ele>0</ele>
<time>2026-09-04T06:33:52Z</time>
</trkpt>
<trkpt lat="46.565090000" lon="-72.755010000">
<ele>0</ele>
<time>2026-09-04T06:33:53Z</time>
</trkpt>
<trkpt lat="46.564910000" lon="-72.755100000">
<ele>0</ele>
<time>2026-09-04T06:33:54Z</time>
</trkpt>
<trkpt lat="46.564750000" lon="-72.755210000">
<ele>0</ele>
<time>2026-09-04T06:33:55Z</time>
</trkpt>
<trkpt lat="46.564090000" lon="-72.755820000">
<ele>0</ele>
<time>2026-09-04T06:33:56Z</time>
</trkpt>
<trkpt lat="46.563830000" lon="-72.756130000">
<ele>0</ele>
<time>2026-09-04T06:33:57Z</time>
</trkpt>
<trkpt lat="46.563510000" lon="-72.756180000">
<ele>0</ele>
<time>2026-09-04T06:33:58Z</time>
</trkpt>
<trkpt lat="46.563510000" lon="-72.756180000">
<ele>0</ele>
<time>2026-09-04T06:33:59Z</time>
</trkpt>
<trkpt lat="46.563170000" lon="-72.756370000">
<ele>0</ele>
<time>2026-09-04T06:34:00Z</time>
</trkpt>
<trkpt lat="46.562960000" lon="-72.756470000">
<ele>0</ele>
<time>2026-09-04T06:34:01Z</time>
</trkpt>
<trkpt lat="46.562830000" lon="-72.756440000">
<ele>0</ele>
<time>2026-09-04T06:34:02Z</time>
</trkpt>
<trkpt lat="46.562600000" lon="-72.756300000">
<ele>0</ele>
<time>2026-09-04T06:34:03Z</time>
</trkpt>
<trkpt lat="46.562160000" lon="-72.756050000">
<ele>0</ele>
<time>2026-09-04T06:34:04Z</time>
</trkpt>
<trkpt lat="46.561840000" lon="-72.755810000">
<ele>0</ele>
<time>2026-09-04T06:34:05Z</time>
</trkpt>
<trkpt lat="46.561550000" lon="-72.755540000">
<ele>0</ele>
<time>2026-09-04T06:34:06Z</time>
</trkpt>
<trkpt lat="46.561460000" lon="-72.755470000">
<ele>0</ele>
<time>2026-09-04T06:34:07Z</time>
</trkpt>
<trkpt lat="46.561370000" lon="-72.755460000">
<ele>0</ele>
<time>2026-09-04T06:34:08Z</time>
</trkpt>
<trkpt lat="46.561290000" lon="-72.755490000">
<ele>0</ele>
<time>2026-09-04T06:34:09Z</time>
</trkpt>
<trkpt lat="46.561160000" lon="-72.755570000">
<ele>0</ele>
<time>2026-09-04T06:34:10Z</time>
</trkpt>
<trkpt lat="46.561020000" lon="-72.755610000">
<ele>0</ele>
<time>2026-09-04T06:34:11Z</time>
</trkpt>
<trkpt lat="46.560780000" lon="-72.755600000">
<ele>0</ele>
<time>2026-09-04T06:34:12Z</time>
</trkpt>
<trkpt lat="46.560250000" lon="-72.755450000">
<ele>0</ele>
<time>2026-09-04T06:34:13Z</time>
</trkpt>
<trkpt lat="46.559550000" lon="-72.755340000">
<ele>0</ele>
<time>2026-09-04T06:34:14Z</time>
</trkpt>
<trkpt lat="46.558890000" lon="-72.755160000">
<ele>0</ele>
<time>2026-09-04T06:34:15Z</time>
</trkpt>
<trkpt lat="46.558720000" lon="-72.755100000">
<ele>0</ele>
<time>2026-09-04T06:34:16Z</time>
</trkpt>
<trkpt lat="46.558560000" lon="-72.754980000">
<ele>0</ele>
<time>2026-09-04T06:34:17Z</time>
</trkpt>
<trkpt lat="46.558450000" lon="-72.754910000">
<ele>0</ele>
<time>2026-09-04T06:34:18Z</time>
</trkpt>
<trkpt lat="46.558260000" lon="-72.754710000">
<ele>0</ele>
<time>2026-09-04T06:34:19Z</time>
</trkpt>
<trkpt lat="46.558090000" lon="-72.754520000">
<ele>0</ele>
<time>2026-09-04T06:34:20Z</time>
</trkpt>
<trkpt lat="46.557850000" lon="-72.754180000">
<ele>0</ele>
<time>2026-09-04T06:34:21Z</time>
</trkpt>
<trkpt lat="46.557760000" lon="-72.754030000">
<ele>0</ele>
<time>2026-09-04T06:34:22Z</time>
</trkpt>
<trkpt lat="46.557620000" lon="-72.753730000">
<ele>0</ele>
<time>2026-09-04T06:34:23Z</time>
</trkpt>
<trkpt lat="46.557500000" lon="-72.753290000">
<ele>0</ele>
<time>2026-09-04T06:34:24Z</time>
</trkpt>
<trkpt lat="46.557440000" lon="-72.753030000">
<ele>0</ele>
<time>2026-09-04T06:34:25Z</time>
</trkpt>
<trkpt lat="46.557430000" lon="-72.752920000">
<ele>0</ele>
<time>2026-09-04T06:34:26Z</time>
</trkpt>
<trkpt lat="46.557460000" lon="-72.752800000">
<ele>0</ele>
<time>2026-09-04T06:34:27Z</time>
</trkpt>
<trkpt lat="46.557650000" lon="-72.752210000">
<ele>0</ele>
<time>2026-09-04T06:34:28Z</time>
</trkpt>
<trkpt lat="46.557660000" lon="-72.752000000">
<ele>0</ele>
<time>2026-09-04T06:34:29Z</time>
</trkpt>
<trkpt lat="46.557610000" lon="-72.751830000">
<ele>0</ele>
<time>2026-09-04T06:34:30Z</time>
</trkpt>
<trkpt lat="46.557610000" lon="-72.751830000">
<ele>0</ele>
<time>2026-09-04T06:34:31Z</time>
</trkpt>
<trkpt lat="46.557490000" lon="-72.751690000">
<ele>0</ele>
<time>2026-09-04T06:34:32Z</time>
</trkpt>
<trkpt lat="46.557310000" lon="-72.751380000">
<ele>0</ele>
<time>2026-09-04T06:34:33Z</time>
</trkpt>
<trkpt lat="46.557260000" lon="-72.751400000">
<ele>0</ele>
<time>2026-09-04T06:34:34Z</time>
</trkpt>
<trkpt lat="46.557230000" lon="-72.751250000">
<ele>0</ele>
<time>2026-09-04T06:34:35Z</time>
</trkpt>
<trkpt lat="46.557130000" lon="-72.750910000">
<ele>0</ele>
<time>2026-09-04T06:34:36Z</time>
</trkpt>
<trkpt lat="46.557100000" lon="-72.750810000">
<ele>0</ele>
<time>2026-09-04T06:34:37Z</time>
</trkpt>
<trkpt lat="46.557100000" lon="-72.750810000">
<ele>0</ele>
<time>2026-09-04T06:34:38Z</time>
</trkpt>
<trkpt lat="46.556960000" lon="-72.750400000">
<ele>0</ele>
<time>2026-09-04T06:34:39Z</time>
</trkpt>
<trkpt lat="46.556620000" lon="-72.749800000">
<ele>0</ele>
<time>2026-09-04T06:34:40Z</time>
</trkpt>
<trkpt lat="46.556130000" lon="-72.749110000">
<ele>0</ele>
<time>2026-09-04T06:34:41Z</time>
</trkpt>
<trkpt lat="46.556130000" lon="-72.749110000">
<ele>0</ele>
<time>2026-09-04T06:34:42Z</time>
</trkpt>
<trkpt lat="46.555340000" lon="-72.748090000">
<ele>0</ele>
<time>2026-09-04T06:34:43Z</time>
</trkpt>
<trkpt lat="46.555340000" lon="-72.748090000">
<ele>0</ele>
<time>2026-09-04T06:34:44Z</time>
</trkpt>
<trkpt lat="46.555230000" lon="-72.747930000">
<ele>0</ele>
<time>2026-09-04T06:34:45Z</time>
</trkpt>
<trkpt lat="46.555280000" lon="-72.747840000">
<ele>0</ele>
<time>2026-09-04T06:34:46Z</time>
</trkpt>
<trkpt lat="46.555280000" lon="-72.747840000">
<ele>0</ele>
<time>2026-09-04T06:34:47Z</time>
</trkpt>
<trkpt lat="46.555900000" lon="-72.746850000">
<ele>0</ele>
<time>2026-09-04T06:34:48Z</time>
</trkpt>
<trkpt lat="46.556680000" lon="-72.745530000">
<ele>0</ele>
<time>2026-09-04T06:34:49Z</time>
</trkpt>
<trkpt lat="46.556640000" lon="-72.745470000">
<ele>0</ele>
<time>2026-09-04T06:34:50Z</time>
</trkpt>
<trkpt lat="46.556640000" lon="-72.745470000">
<ele>0</ele>
<time>2026-09-04T06:34:51Z</time>
</trkpt>
<trkpt lat="46.555250000" lon="-72.743550000">
<ele>0</ele>
<time>2026-09-04T06:34:52Z</time>
</trkpt>
<trkpt lat="46.554540000" lon="-72.742620000">
<ele>0</ele>
<time>2026-09-04T06:34:53Z</time>
</trkpt>
<trkpt lat="46.554510000" lon="-72.742660000">
<ele>0</ele>
<time>2026-09-04T06:34:54Z</time>
</trkpt>
<trkpt lat="46.554510000" lon="-72.742660000">
<ele>0</ele>
<time>2026-09-04T06:34:55Z</time>
</trkpt>
<trkpt lat="46.553690000" lon="-72.743930000">
<ele>0</ele>
<time>2026-09-04T06:34:56Z</time>
</trkpt>
<trkpt lat="46.553460000" lon="-72.744220000">
<ele>0</ele>
<time>2026-09-04T06:34:57Z</time>
</trkpt>
<trkpt lat="46.552890000" lon="-72.744800000">
<ele>0</ele>
<time>2026-09-04T06:34:58Z</time>
</trkpt>
<trkpt lat="46.551330000" lon="-72.746450000">
<ele>0</ele>
<time>2026-09-04T06:34:59Z</time>
</trkpt>
<trkpt lat="46.550140000" lon="-72.747720000">
<ele>0</ele>
<time>2026-09-04T06:35:00Z</time>
</trkpt>
<trkpt lat="46.550080000" lon="-72.747780000">
<ele>0</ele>
<time>2026-09-04T06:35:01Z</time>
</trkpt>
<trkpt lat="46.550060000" lon="-72.747730000">
<ele>0</ele>
<time>2026-09-04T06:35:02Z</time>
</trkpt>
<trkpt lat="46.550060000" lon="-72.747730000">
<ele>0</ele>
<time>2026-09-04T06:35:03Z</time>
</trkpt>
<trkpt lat="46.549880000" lon="-72.747280000">
<ele>0</ele>
<time>2026-09-04T06:35:04Z</time>
</trkpt>
<trkpt lat="46.549760000" lon="-72.747240000">
<ele>0</ele>
<time>2026-09-04T06:35:05Z</time>
</trkpt>
<trkpt lat="46.549760000" lon="-72.747240000">
<ele>0</ele>
<time>2026-09-04T06:35:06Z</time>
</trkpt>
<trkpt lat="46.549640000" lon="-72.747190000">
<ele>0</ele>
<time>2026-09-04T06:35:07Z</time>
</trkpt>
<trkpt lat="46.549470000" lon="-72.747180000">
<ele>0</ele>
<time>2026-09-04T06:35:08Z</time>
</trkpt>
<trkpt lat="46.548460000" lon="-72.747190000">
<ele>0</ele>
<time>2026-09-04T06:35:09Z</time>
</trkpt>
<trkpt lat="46.548030000" lon="-72.747220000">
<ele>0</ele>
<time>2026-09-04T06:35:10Z</time>
</trkpt>
<trkpt lat="46.547880000" lon="-72.747270000">
<ele>0</ele>
<time>2026-09-04T06:35:11Z</time>
</trkpt>
<trkpt lat="46.547820000" lon="-72.747290000">
<ele>0</ele>
<time>2026-09-04T06:35:12Z</time>
</trkpt>
<trkpt lat="46.547790000" lon="-72.747300000">
<ele>0</ele>
<time>2026-09-04T06:35:13Z</time>
</trkpt>
<trkpt lat="46.547760000" lon="-72.747220000">
<ele>0</ele>
<time>2026-09-04T06:35:14Z</time>
</trkpt>
<trkpt lat="46.547760000" lon="-72.747200000">
<ele>0</ele>
<time>2026-09-04T06:35:15Z</time>
</trkpt>
<trkpt lat="46.547760000" lon="-72.747200000">
<ele>0</ele>
<time>2026-09-04T06:35:16Z</time>
</trkpt>
<trkpt lat="46.547650000" lon="-72.747010000">
<ele>0</ele>
<time>2026-09-04T06:35:17Z</time>
</trkpt>
<trkpt lat="46.547440000" lon="-72.746610000">
<ele>0</ele>
<time>2026-09-04T06:35:18Z</time>
</trkpt>
<trkpt lat="46.547330000" lon="-72.746440000">
<ele>0</ele>
<time>2026-09-04T06:35:19Z</time>
</trkpt>
<trkpt lat="46.547330000" lon="-72.746370000">
<ele>0</ele>
<time>2026-09-04T06:35:20Z</time>
</trkpt>
<trkpt lat="46.547330000" lon="-72.746370000">
<ele>0</ele>
<time>2026-09-04T06:35:21Z</time>
</trkpt>
<trkpt lat="46.547320000" lon="-72.746140000">
<ele>0</ele>
<time>2026-09-04T06:35:22Z</time>
</trkpt>
<trkpt lat="46.547310000" lon="-72.745990000">
<ele>0</ele>
<time>2026-09-04T06:35:23Z</time>
</trkpt>
<trkpt lat="46.547270000" lon="-72.745880000">
<ele>0</ele>
<time>2026-09-04T06:35:24Z</time>
</trkpt>
<trkpt lat="46.547210000" lon="-72.745790000">
<ele>0</ele>
<time>2026-09-04T06:35:25Z</time>
</trkpt>
<trkpt lat="46.547120000" lon="-72.745730000">
<ele>0</ele>
<time>2026-09-04T06:35:26Z</time>
</trkpt>
<trkpt lat="46.547010000" lon="-72.745610000">
<ele>0</ele>
<time>2026-09-04T06:35:27Z</time>
</trkpt>
<trkpt lat="46.546870000" lon="-72.745410000">
<ele>0</ele>
<time>2026-09-04T06:35:28Z</time>
</trkpt>
<trkpt lat="46.546810000" lon="-72.745300000">
<ele>0</ele>
<time>2026-09-04T06:35:29Z</time>
</trkpt>
<trkpt lat="46.546780000" lon="-72.745280000">
<ele>0</ele>
<time>2026-09-04T06:35:30Z</time>
</trkpt>
<trkpt lat="46.546780000" lon="-72.745280000">
<ele>0</ele>
<time>2026-09-04T06:35:31Z</time>
</trkpt>
<trkpt lat="46.546650000" lon="-72.745210000">
<ele>0</ele>
<time>2026-09-04T06:35:32Z</time>
</trkpt>
<trkpt lat="46.546640000" lon="-72.745160000">
<ele>0</ele>
<time>2026-09-04T06:35:33Z</time>
</trkpt>
<trkpt lat="46.546640000" lon="-72.745160000">
<ele>0</ele>
<time>2026-09-04T06:35:34Z</time>
</trkpt>
<trkpt lat="46.546620000" lon="-72.745050000">
<ele>0</ele>
<time>2026-09-04T06:35:35Z</time>
</trkpt>
<trkpt lat="46.546640000" lon="-72.744990000">
<ele>0</ele>
<time>2026-09-04T06:35:36Z</time>
</trkpt>
<trkpt lat="46.546640000" lon="-72.744990000">
<ele>0</ele>
<time>2026-09-04T06:35:37Z</time>
</trkpt>
<trkpt lat="46.546640000" lon="-72.744890000">
<ele>0</ele>
<time>2026-09-04T06:35:38Z</time>
</trkpt>
<trkpt lat="46.546600000" lon="-72.744780000">
<ele>0</ele>
<time>2026-09-04T06:35:39Z</time>
</trkpt>
<trkpt lat="46.546580000" lon="-72.744770000">
<ele>0</ele>
<time>2026-09-04T06:35:40Z</time>
</trkpt>
<trkpt lat="46.546580000" lon="-72.744770000">
<ele>0</ele>
<time>2026-09-04T06:35:41Z</time>
</trkpt>
<trkpt lat="46.546500000" lon="-72.744770000">
<ele>0</ele>
<time>2026-09-04T06:35:42Z</time>
</trkpt>
<trkpt lat="46.546360000" lon="-72.744800000">
<ele>0</ele>
<time>2026-09-04T06:35:43Z</time>
</trkpt>
<trkpt lat="46.546300000" lon="-72.744800000">
<ele>0</ele>
<time>2026-09-04T06:35:44Z</time>
</trkpt>
<trkpt lat="46.546280000" lon="-72.744780000">
<ele>0</ele>
<time>2026-09-04T06:35:45Z</time>
</trkpt>
<trkpt lat="46.546070000" lon="-72.743450000">
<ele>0</ele>
<time>2026-09-04T06:35:46Z</time>
</trkpt>
<trkpt lat="46.546050000" lon="-72.743460000">
<ele>0</ele>
<time>2026-09-04T06:35:47Z</time>
</trkpt>
<trkpt lat="46.546050000" lon="-72.743460000">
<ele>0</ele>
<time>2026-09-04T06:35:48Z</time>
</trkpt>
<trkpt lat="46.544980000" lon="-72.743770000">
<ele>0</ele>
<time>2026-09-04T06:35:49Z</time>
</trkpt>
<trkpt lat="46.544860000" lon="-72.743860000">
<ele>0</ele>
<time>2026-09-04T06:35:50Z</time>
</trkpt>
<trkpt lat="46.544790000" lon="-72.743990000">
<ele>0</ele>
<time>2026-09-04T06:35:51Z</time>
</trkpt>
<trkpt lat="46.544700000" lon="-72.744590000">
<ele>0</ele>
<time>2026-09-04T06:35:52Z</time>
</trkpt>
<trkpt lat="46.544620000" lon="-72.744710000">
<ele>0</ele>
<time>2026-09-04T06:35:53Z</time>
</trkpt>
<trkpt lat="46.544540000" lon="-72.744750000">
<ele>0</ele>
<time>2026-09-04T06:35:54Z</time>
</trkpt>
<trkpt lat="46.544390000" lon="-72.744750000">
<ele>0</ele>
<time>2026-09-04T06:35:55Z</time>
</trkpt>
<trkpt lat="46.544370000" lon="-72.744720000">
<ele>0</ele>
<time>2026-09-04T06:35:56Z</time>
</trkpt>
<trkpt lat="46.544370000" lon="-72.744720000">
<ele>0</ele>
<time>2026-09-04T06:35:57Z</time>
</trkpt>
<trkpt lat="46.544270000" lon="-72.744580000">
<ele>0</ele>
<time>2026-09-04T06:35:58Z</time>
</trkpt>
<trkpt lat="46.544140000" lon="-72.744450000">
<ele>0</ele>
<time>2026-09-04T06:35:59Z</time>
</trkpt>
<trkpt lat="46.543890000" lon="-72.744330000">
<ele>0</ele>
<time>2026-09-04T06:36:00Z</time>
</trkpt>
<trkpt lat="46.543710000" lon="-72.744280000">
<ele>0</ele>
<time>2026-09-04T06:36:01Z</time>
</trkpt>
<trkpt lat="46.543690000" lon="-72.744240000">
<ele>0</ele>
<time>2026-09-04T06:36:02Z</time>
</trkpt>
<trkpt lat="46.543690000" lon="-72.744240000">
<ele>0</ele>
<time>2026-09-04T06:36:03Z</time>
</trkpt>
<trkpt lat="46.543650000" lon="-72.744190000">
<ele>0</ele>
<time>2026-09-04T06:36:04Z</time>
</trkpt>
<trkpt lat="46.543550000" lon="-72.744160000">
<ele>0</ele>
<time>2026-09-04T06:36:05Z</time>
</trkpt>
<trkpt lat="46.542960000" lon="-72.744170000">
<ele>0</ele>
<time>2026-09-04T06:36:06Z</time>
</trkpt>
<trkpt lat="46.542420000" lon="-72.744120000">
<ele>0</ele>
<time>2026-09-04T06:36:07Z</time>
</trkpt>
<trkpt lat="46.541520000" lon="-72.744020000">
<ele>0</ele>
<time>2026-09-04T06:36:08Z</time>
</trkpt>
<trkpt lat="46.541520000" lon="-72.743950000">
<ele>0</ele>
<time>2026-09-04T06:36:09Z</time>
</trkpt>
<trkpt lat="46.541520000" lon="-72.743950000">
<ele>0</ele>
<time>2026-09-04T06:36:10Z</time>
</trkpt>
<trkpt lat="46.541550000" lon="-72.743120000">
<ele>0</ele>
<time>2026-09-04T06:36:11Z</time>
</trkpt>
<trkpt lat="46.541510000" lon="-72.742840000">
<ele>0</ele>
<time>2026-09-04T06:36:12Z</time>
</trkpt>
<trkpt lat="46.541480000" lon="-72.742790000">
<ele>0</ele>
<time>2026-09-04T06:36:13Z</time>
</trkpt>
<trkpt lat="46.541410000" lon="-72.742730000">
<ele>0</ele>
<time>2026-09-04T06:36:14Z</time>
</trkpt>
<trkpt lat="46.541250000" lon="-72.742700000">
<ele>0</ele>
<time>2026-09-04T06:36:15Z</time>
</trkpt>
<trkpt lat="46.541090000" lon="-72.742690000">
<ele>0</ele>
<time>2026-09-04T06:36:16Z</time>
</trkpt>
<trkpt lat="46.540830000" lon="-72.742680000">
<ele>0</ele>
<time>2026-09-04T06:36:17Z</time>
</trkpt>
<trkpt lat="46.540830000" lon="-72.742680000">
<ele>0</ele>
<time>2026-09-04T06:36:18Z</time>
</trkpt>
<trkpt lat="46.540460000" lon="-72.742720000">
<ele>0</ele>
<time>2026-09-04T06:36:19Z</time>
</trkpt>
<trkpt lat="46.540180000" lon="-72.742870000">
<ele>0</ele>
<time>2026-09-04T06:36:20Z</time>
</trkpt>
<trkpt lat="46.540120000" lon="-72.742970000">
<ele>0</ele>
<time>2026-09-04T06:36:21Z</time>
</trkpt>
<trkpt lat="46.540090000" lon="-72.743200000">
<ele>0</ele>
<time>2026-09-04T06:36:22Z</time>
</trkpt>
<trkpt lat="46.540070000" lon="-72.743910000">
<ele>0</ele>
<time>2026-09-04T06:36:23Z</time>
</trkpt>
<trkpt lat="46.540020000" lon="-72.743900000">
<ele>0</ele>
<time>2026-09-04T06:36:24Z</time>
</trkpt>
<trkpt lat="46.540020000" lon="-72.743900000">
<ele>0</ele>
<time>2026-09-04T06:36:25Z</time>
</trkpt>
<trkpt lat="46.537880000" lon="-72.743680000">
<ele>0</ele>
<time>2026-09-04T06:36:26Z</time>
</trkpt>
<trkpt lat="46.537550000" lon="-72.743640000">
<ele>0</ele>
<time>2026-09-04T06:36:27Z</time>
</trkpt>
<trkpt lat="46.537450000" lon="-72.743680000">
<ele>0</ele>
<time>2026-09-04T06:36:28Z</time>
</trkpt>
<trkpt lat="46.537390000" lon="-72.743710000">
<ele>0</ele>
<time>2026-09-04T06:36:29Z</time>
</trkpt>
<trkpt lat="46.537350000" lon="-72.743780000">
<ele>0</ele>
<time>2026-09-04T06:36:30Z</time>
</trkpt>
<trkpt lat="46.537300000" lon="-72.743960000">
<ele>0</ele>
<time>2026-09-04T06:36:31Z</time>
</trkpt>
<trkpt lat="46.537150000" lon="-72.744830000">
<ele>0</ele>
<time>2026-09-04T06:36:32Z</time>
</trkpt>
<trkpt lat="46.536720000" lon="-72.746770000">
<ele>0</ele>
<time>2026-09-04T06:36:33Z</time>
</trkpt>
<trkpt lat="46.536500000" lon="-72.747840000">
<ele>0</ele>
<time>2026-09-04T06:36:34Z</time>
</trkpt>
<trkpt lat="46.536470000" lon="-72.748230000">
<ele>0</ele>
<time>2026-09-04T06:36:35Z</time>
</trkpt>
<trkpt lat="46.536470000" lon="-72.748230000">
<ele>0</ele>
<time>2026-09-04T06:36:36Z</time>
</trkpt>
<trkpt lat="46.536300000" lon="-72.749910000">
<ele>0</ele>
<time>2026-09-04T06:36:37Z</time>
</trkpt>
<trkpt lat="46.536270000" lon="-72.750160000">
<ele>0</ele>
<time>2026-09-04T06:36:38Z</time>
</trkpt>
<trkpt lat="46.536280000" lon="-72.750330000">
<ele>0</ele>
<time>2026-09-04T06:36:39Z</time>
</trkpt>
<trkpt lat="46.536350000" lon="-72.750620000">
<ele>0</ele>
<time>2026-09-04T06:36:40Z</time>
</trkpt>
<trkpt lat="46.536430000" lon="-72.750760000">
<ele>0</ele>
<time>2026-09-04T06:36:41Z</time>
</trkpt>
<trkpt lat="46.536560000" lon="-72.750920000">
<ele>0</ele>
<time>2026-09-04T06:36:42Z</time>
</trkpt>
<trkpt lat="46.536850000" lon="-72.751170000">
<ele>0</ele>
<time>2026-09-04T06:36:43Z</time>
</trkpt>
<trkpt lat="46.537470000" lon="-72.751650000">
<ele>0</ele>
<time>2026-09-04T06:36:44Z</time>
</trkpt>
<trkpt lat="46.537860000" lon="-72.751920000">
<ele>0</ele>
<time>2026-09-04T06:36:45Z</time>
</trkpt>
<trkpt lat="46.537880000" lon="-72.751890000">
<ele>0</ele>
<time>2026-09-04T06:36:46Z</time>
</trkpt>
<trkpt lat="46.537880000" lon="-72.751890000">
<ele>0</ele>
<time>2026-09-04T06:36:47Z</time>
</trkpt>
<trkpt lat="46.538110000" lon="-72.751560000">
<ele>0</ele>
<time>2026-09-04T06:36:48Z</time>
</trkpt>
<trkpt lat="46.538190000" lon="-72.751420000">
<ele>0</ele>
<time>2026-09-04T06:36:49Z</time>
</trkpt>
<trkpt lat="46.538240000" lon="-72.751280000">
<ele>0</ele>
<time>2026-09-04T06:36:50Z</time>
</trkpt>
<trkpt lat="46.538260000" lon="-72.751300000">
<ele>0</ele>
<time>2026-09-04T06:36:51Z</time>
</trkpt>
<trkpt lat="46.538260000" lon="-72.751300000">
<ele>0</ele>
<time>2026-09-04T06:36:52Z</time>
</trkpt>
<trkpt lat="46.538320000" lon="-72.751380000">
<ele>0</ele>
<time>2026-09-04T06:36:53Z</time>
</trkpt>
<trkpt lat="46.538330000" lon="-72.751450000">
<ele>0</ele>
<time>2026-09-04T06:36:54Z</time>
</trkpt>
<trkpt lat="46.538320000" lon="-72.751780000">
<ele>0</ele>
<time>2026-09-04T06:36:55Z</time>
</trkpt>
<trkpt lat="46.538300000" lon="-72.751790000">
<ele>0</ele>
<time>2026-09-04T06:36:56Z</time>
</trkpt>
<trkpt lat="46.538200000" lon="-72.751880000">
<ele>0</ele>
<time>2026-09-04T06:36:57Z</time>
</trkpt>
<trkpt lat="46.537990000" lon="-72.752180000">
<ele>0</ele>
<time>2026-09-04T06:36:58Z</time>
</trkpt>
<trkpt lat="46.536470000" lon="-72.754420000">
<ele>0</ele>
<time>2026-09-04T06:36:59Z</time>
</trkpt>
<trkpt lat="46.536310000" lon="-72.754670000">
<ele>0</ele>
<time>2026-09-04T06:37:00Z</time>
</trkpt>
<trkpt lat="46.536210000" lon="-72.754830000">
<ele>0</ele>
<time>2026-09-04T06:37:01Z</time>
</trkpt>
<trkpt lat="46.536170000" lon="-72.754950000">
<ele>0</ele>
<time>2026-09-04T06:37:02Z</time>
</trkpt>
<trkpt lat="46.536030000" lon="-72.755130000">
<ele>0</ele>
<time>2026-09-04T06:37:03Z</time>
</trkpt>
<trkpt lat="46.535890000" lon="-72.755290000">
<ele>0</ele>
<time>2026-09-04T06:37:04Z</time>
</trkpt>
<trkpt lat="46.535660000" lon="-72.755490000">
<ele>0</ele>
<time>2026-09-04T06:37:05Z</time>
</trkpt>
<trkpt lat="46.535470000" lon="-72.755630000">
<ele>0</ele>
<time>2026-09-04T06:37:06Z</time>
</trkpt>
<trkpt lat="46.535390000" lon="-72.755670000">
<ele>0</ele>
<time>2026-09-04T06:37:07Z</time>
</trkpt>
<trkpt lat="46.535360000" lon="-72.755600000">
<ele>0</ele>
<time>2026-09-04T06:37:08Z</time>
</trkpt>
<trkpt lat="46.535360000" lon="-72.755600000">
<ele>0</ele>
<time>2026-09-04T06:37:09Z</time>
</trkpt>
<trkpt lat="46.535320000" lon="-72.755530000">
<ele>0</ele>
<time>2026-09-04T06:37:10Z</time>
</trkpt>
<trkpt lat="46.535260000" lon="-72.755300000">
<ele>0</ele>
<time>2026-09-04T06:37:11Z</time>
</trkpt>
<trkpt lat="46.535200000" lon="-72.755060000">
<ele>0</ele>
<time>2026-09-04T06:37:12Z</time>
</trkpt>
<trkpt lat="46.535160000" lon="-72.754800000">
<ele>0</ele>
<time>2026-09-04T06:37:13Z</time>
</trkpt>
<trkpt lat="46.535110000" lon="-72.754830000">
<ele>0</ele>
<time>2026-09-04T06:37:14Z</time>
</trkpt>
<trkpt lat="46.535110000" lon="-72.754830000">
<ele>0</ele>
<time>2026-09-04T06:37:15Z</time>
</trkpt>
<trkpt lat="46.534750000" lon="-72.755040000">
<ele>0</ele>
<time>2026-09-04T06:37:16Z</time>
</trkpt>
<trkpt lat="46.534410000" lon="-72.755230000">
<ele>0</ele>
<time>2026-09-04T06:37:17Z</time>
</trkpt>
<trkpt lat="46.534190000" lon="-72.755360000">
<ele>0</ele>
<time>2026-09-04T06:37:18Z</time>
</trkpt>
<trkpt lat="46.534080000" lon="-72.755400000">
<ele>0</ele>
<time>2026-09-04T06:37:19Z</time>
</trkpt>
<trkpt lat="46.533950000" lon="-72.755410000">
<ele>0</ele>
<time>2026-09-04T06:37:20Z</time>
</trkpt>
<trkpt lat="46.533630000" lon="-72.755310000">
<ele>0</ele>
<time>2026-09-04T06:37:21Z</time>
</trkpt>
<trkpt lat="46.533520000" lon="-72.755260000">
<ele>0</ele>
<time>2026-09-04T06:37:22Z</time>
</trkpt>
<trkpt lat="46.533170000" lon="-72.755170000">
<ele>0</ele>
<time>2026-09-04T06:37:23Z</time>
</trkpt>
<trkpt lat="46.532960000" lon="-72.755120000">
<ele>0</ele>
<time>2026-09-04T06:37:24Z</time>
</trkpt>
<trkpt lat="46.532960000" lon="-72.755120000">
<ele>0</ele>
<time>2026-09-04T06:37:25Z</time>
</trkpt>
<trkpt lat="46.532590000" lon="-72.755050000">
<ele>0</ele>
<time>2026-09-04T06:37:26Z</time>
</trkpt>
<trkpt lat="46.532450000" lon="-72.755050000">
<ele>0</ele>
<time>2026-09-04T06:37:27Z</time>
</trkpt>
<trkpt lat="46.532270000" lon="-72.755140000">
<ele>0</ele>
<time>2026-09-04T06:37:28Z</time>
</trkpt>
<trkpt lat="46.531800000" lon="-72.755530000">
<ele>0</ele>
<time>2026-09-04T06:37:29Z</time>
</trkpt>
<trkpt lat="46.531660000" lon="-72.755700000">
<ele>0</ele>
<time>2026-09-04T06:37:30Z</time>
</trkpt>
<trkpt lat="46.531550000" lon="-72.755900000">
<ele>0</ele>
<time>2026-09-04T06:37:31Z</time>
</trkpt>
<trkpt lat="46.531480000" lon="-72.756200000">
<ele>0</ele>
<time>2026-09-04T06:37:32Z</time>
</trkpt>
<trkpt lat="46.531450000" lon="-72.756600000">
<ele>0</ele>
<time>2026-09-04T06:37:33Z</time>
</trkpt>
<trkpt lat="46.531420000" lon="-72.756760000">
<ele>0</ele>
<time>2026-09-04T06:37:34Z</time>
</trkpt>
<trkpt lat="46.531390000" lon="-72.756810000">
<ele>0</ele>
<time>2026-09-04T06:37:35Z</time>
</trkpt>
<trkpt lat="46.531320000" lon="-72.757010000">
<ele>0</ele>
<time>2026-09-04T06:37:36Z</time>
</trkpt>
<trkpt lat="46.531290000" lon="-72.757030000">
<ele>0</ele>
<time>2026-09-04T06:37:37Z</time>
</trkpt>
<trkpt lat="46.531290000" lon="-72.757030000">
<ele>0</ele>
<time>2026-09-04T06:37:38Z</time>
</trkpt>
<trkpt lat="46.530720000" lon="-72.757330000">
<ele>0</ele>
<time>2026-09-04T06:37:39Z</time>
</trkpt>
<trkpt lat="46.530550000" lon="-72.757420000">
<ele>0</ele>
<time>2026-09-04T06:37:40Z</time>
</trkpt>
<trkpt lat="46.530380000" lon="-72.757500000">
<ele>0</ele>
<time>2026-09-04T06:37:41Z</time>
</trkpt>
<trkpt lat="46.530250000" lon="-72.757410000">
<ele>0</ele>
<time>2026-09-04T06:37:42Z</time>
</trkpt>
<trkpt lat="46.530250000" lon="-72.757410000">
<ele>0</ele>
<time>2026-09-04T06:37:43Z</time>
</trkpt>
<trkpt lat="46.530110000" lon="-72.757310000">
<ele>0</ele>
<time>2026-09-04T06:37:44Z</time>
</trkpt>
<trkpt lat="46.529930000" lon="-72.757030000">
<ele>0</ele>
<time>2026-09-04T06:37:45Z</time>
</trkpt>
<trkpt lat="46.529170000" lon="-72.755950000">
<ele>0</ele>
<time>2026-09-04T06:37:46Z</time>
</trkpt>
<trkpt lat="46.529180000" lon="-72.755910000">
<ele>0</ele>
<time>2026-09-04T06:37:47Z</time>
</trkpt>
<trkpt lat="46.529300000" lon="-72.755790000">
<ele>0</ele>
<time>2026-09-04T06:37:48Z</time>
</trkpt>
<trkpt lat="46.529400000" lon="-72.755630000">
<ele>0</ele>
<time>2026-09-04T06:37:49Z</time>
</trkpt>
<trkpt lat="46.529470000" lon="-72.755440000">
<ele>0</ele>
<time>2026-09-04T06:37:50Z</time>
</trkpt>
<trkpt lat="46.529470000" lon="-72.755440000">
<ele>0</ele>
<time>2026-09-04T06:37:51Z</time>
</trkpt>
<trkpt lat="46.529490000" lon="-72.755320000">
<ele>0</ele>
<time>2026-09-04T06:37:52Z</time>
</trkpt>
<trkpt lat="46.529480000" lon="-72.755060000">
<ele>0</ele>
<time>2026-09-04T06:37:53Z</time>
</trkpt>
<trkpt lat="46.529260000" lon="-72.753560000">
<ele>0</ele>
<time>2026-09-04T06:37:54Z</time>
</trkpt>
<trkpt lat="46.529240000" lon="-72.753240000">
<ele>0</ele>
<time>2026-09-04T06:37:55Z</time>
</trkpt>
<trkpt lat="46.529230000" lon="-72.752390000">
<ele>0</ele>
<time>2026-09-04T06:37:56Z</time>
</trkpt>
<trkpt lat="46.529000000" lon="-72.750300000">
<ele>0</ele>
<time>2026-09-04T06:37:57Z</time>
</trkpt>
<trkpt lat="46.528850000" lon="-72.749010000">
<ele>0</ele>
<time>2026-09-04T06:37:58Z</time>
</trkpt>
<trkpt lat="46.528710000" lon="-72.748040000">
<ele>0</ele>
<time>2026-09-04T06:37:59Z</time>
</trkpt>
<trkpt lat="46.528570000" lon="-72.747230000">
<ele>0</ele>
<time>2026-09-04T06:38:00Z</time>
</trkpt>
<trkpt lat="46.528360000" lon="-72.746340000">
<ele>0</ele>
<time>2026-09-04T06:38:01Z</time>
</trkpt>
<trkpt lat="46.527990000" lon="-72.745160000">
<ele>0</ele>
<time>2026-09-04T06:38:02Z</time>
</trkpt>
<trkpt lat="46.527890000" lon="-72.744910000">
<ele>0</ele>
<time>2026-09-04T06:38:03Z</time>
</trkpt>
<trkpt lat="46.527810000" lon="-72.744580000">
<ele>0</ele>
<time>2026-09-04T06:38:04Z</time>
</trkpt>
<trkpt lat="46.527680000" lon="-72.743990000">
<ele>0</ele>
<time>2026-09-04T06:38:05Z</time>
</trkpt>
<trkpt lat="46.527550000" lon="-72.743390000">
<ele>0</ele>
<time>2026-09-04T06:38:06Z</time>
</trkpt>
<trkpt lat="46.527420000" lon="-72.743020000">
<ele>0</ele>
<time>2026-09-04T06:38:07Z</time>
</trkpt>
<trkpt lat="46.527350000" lon="-72.742910000">
<ele>0</ele>
<time>2026-09-04T06:38:08Z</time>
</trkpt>
<trkpt lat="46.527080000" lon="-72.742570000">
<ele>0</ele>
<time>2026-09-04T06:38:09Z</time>
</trkpt>
<trkpt lat="46.526640000" lon="-72.742330000">
<ele>0</ele>
<time>2026-09-04T06:38:10Z</time>
</trkpt>
<trkpt lat="46.526420000" lon="-72.742150000">
<ele>0</ele>
<time>2026-09-04T06:38:11Z</time>
</trkpt>
<trkpt lat="46.526270000" lon="-72.742010000">
<ele>0</ele>
<time>2026-09-04T06:38:12Z</time>
</trkpt>
<trkpt lat="46.525940000" lon="-72.741630000">
<ele>0</ele>
<time>2026-09-04T06:38:13Z</time>
</trkpt>
<trkpt lat="46.525450000" lon="-72.740900000">
<ele>0</ele>
<time>2026-09-04T06:38:14Z</time>
</trkpt>
<trkpt lat="46.525390000" lon="-72.740980000">
<ele>0</ele>
<time>2026-09-04T06:38:15Z</time>
</trkpt>
<trkpt lat="46.525390000" lon="-72.740980000">
<ele>0</ele>
<time>2026-09-04T06:38:16Z</time>
</trkpt>
<trkpt lat="46.523450000" lon="-72.743870000">
<ele>0</ele>
<time>2026-09-04T06:38:17Z</time>
</trkpt>
<trkpt lat="46.522320000" lon="-72.745440000">
<ele>0</ele>
<time>2026-09-04T06:38:18Z</time>
</trkpt>
<trkpt lat="46.521570000" lon="-72.746560000">
<ele>0</ele>
<time>2026-09-04T06:38:19Z</time>
</trkpt>
<trkpt lat="46.521230000" lon="-72.747050000">
<ele>0</ele>
<time>2026-09-04T06:38:20Z</time>
</trkpt>
<trkpt lat="46.521270000" lon="-72.747100000">
<ele>0</ele>
<time>2026-09-04T06:38:21Z</time>
</trkpt>
<trkpt lat="46.521270000" lon="-72.747100000">
<ele>0</ele>
<time>2026-09-04T06:38:22Z</time>
</trkpt>
<trkpt lat="46.522930000" lon="-72.749460000">
<ele>0</ele>
<time>2026-09-04T06:38:23Z</time>
</trkpt>
<trkpt lat="46.523350000" lon="-72.750120000">
<ele>0</ele>
<time>2026-09-04T06:38:24Z</time>
</trkpt>
<trkpt lat="46.523790000" lon="-72.750720000">
<ele>0</ele>
<time>2026-09-04T06:38:25Z</time>
</trkpt>
<trkpt lat="46.524250000" lon="-72.751400000">
<ele>0</ele>
<time>2026-09-04T06:38:26Z</time>
</trkpt>
<trkpt lat="46.524250000" lon="-72.751400000">
<ele>0</ele>
<time>2026-09-04T06:38:27Z</time>
</trkpt>
<trkpt lat="46.525070000" lon="-72.752560000">
<ele>0</ele>
<time>2026-09-04T06:38:28Z</time>
</trkpt>
<trkpt lat="46.525510000" lon="-72.753210000">
<ele>0</ele>
<time>2026-09-04T06:38:29Z</time>
</trkpt>
<trkpt lat="46.525470000" lon="-72.753260000">
<ele>0</ele>
<time>2026-09-04T06:38:30Z</time>
</trkpt>
<trkpt lat="46.525470000" lon="-72.753260000">
<ele>0</ele>
<time>2026-09-04T06:38:31Z</time>
</trkpt>
<trkpt lat="46.524410000" lon="-72.754810000">
<ele>0</ele>
<time>2026-09-04T06:38:32Z</time>
</trkpt>
<trkpt lat="46.524040000" lon="-72.755360000">
<ele>0</ele>
<time>2026-09-04T06:38:33Z</time>
</trkpt>
<trkpt lat="46.523690000" lon="-72.755940000">
<ele>0</ele>
<time>2026-09-04T06:38:34Z</time>
</trkpt>
<trkpt lat="46.523640000" lon="-72.755950000">
<ele>0</ele>
<time>2026-09-04T06:38:35Z</time>
</trkpt>
<trkpt lat="46.523640000" lon="-72.755950000">
<ele>0</ele>
<time>2026-09-04T06:38:36Z</time>
</trkpt>
<trkpt lat="46.522700000" lon="-72.756100000">
<ele>0</ele>
<time>2026-09-04T06:38:37Z</time>
</trkpt>
<trkpt lat="46.522360000" lon="-72.756140000">
<ele>0</ele>
<time>2026-09-04T06:38:38Z</time>
</trkpt>
<trkpt lat="46.521830000" lon="-72.756280000">
<ele>0</ele>
<time>2026-09-04T06:38:39Z</time>
</trkpt>
<trkpt lat="46.521460000" lon="-72.756350000">
<ele>0</ele>
<time>2026-09-04T06:38:40Z</time>
</trkpt>
<trkpt lat="46.520700000" lon="-72.756400000">
<ele>0</ele>
<time>2026-09-04T06:38:41Z</time>
</trkpt>
<trkpt lat="46.520140000" lon="-72.756470000">
<ele>0</ele>
<time>2026-09-04T06:38:42Z</time>
</trkpt>
<trkpt lat="46.519130000" lon="-72.756670000">
<ele>0</ele>
<time>2026-09-04T06:38:43Z</time>
</trkpt>
<trkpt lat="46.518790000" lon="-72.756740000">
<ele>0</ele>
<time>2026-09-04T06:38:44Z</time>
</trkpt>
<trkpt lat="46.516930000" lon="-72.757050000">
<ele>0</ele>
<time>2026-09-04T06:38:45Z</time>
</trkpt>
<trkpt lat="46.516040000" lon="-72.757240000">
<ele>0</ele>
<time>2026-09-04T06:38:46Z</time>
</trkpt>
<trkpt lat="46.515450000" lon="-72.757380000">
<ele>0</ele>
<time>2026-09-04T06:38:47Z</time>
</trkpt>
<trkpt lat="46.515430000" lon="-72.757420000">
<ele>0</ele>
<time>2026-09-04T06:38:48Z</time>
</trkpt>
<trkpt lat="46.515430000" lon="-72.757420000">
<ele>0</ele>
<time>2026-09-04T06:38:49Z</time>
</trkpt>
<trkpt lat="46.514710000" lon="-72.758530000">
<ele>0</ele>
<time>2026-09-04T06:38:50Z</time>
</trkpt>
<trkpt lat="46.514580000" lon="-72.758770000">
<ele>0</ele>
<time>2026-09-04T06:38:51Z</time>
</trkpt>
<trkpt lat="46.514390000" lon="-72.759050000">
<ele>0</ele>
<time>2026-09-04T06:38:52Z</time>
</trkpt>
<trkpt lat="46.514220000" lon="-72.759240000">
<ele>0</ele>
<time>2026-09-04T06:38:53Z</time>
</trkpt>
<trkpt lat="46.513920000" lon="-72.759550000">
<ele>0</ele>
<time>2026-09-04T06:38:54Z</time>
</trkpt>
<trkpt lat="46.513710000" lon="-72.759900000">
<ele>0</ele>
<time>2026-09-04T06:38:55Z</time>
</trkpt>
<trkpt lat="46.513560000" lon="-72.760250000">
<ele>0</ele>
<time>2026-09-04T06:38:56Z</time>
</trkpt>
<trkpt lat="46.513200000" lon="-72.761360000">
<ele>0</ele>
<time>2026-09-04T06:38:57Z</time>
</trkpt>
<trkpt lat="46.512940000" lon="-72.761860000">
<ele>0</ele>
<time>2026-09-04T06:38:58Z</time>
</trkpt>
<trkpt lat="46.512630000" lon="-72.762290000">
<ele>0</ele>
<time>2026-09-04T06:38:59Z</time>
</trkpt>
<trkpt lat="46.512090000" lon="-72.762960000">
<ele>0</ele>
<time>2026-09-04T06:39:00Z</time>
</trkpt>
<trkpt lat="46.511950000" lon="-72.763130000">
<ele>0</ele>
<time>2026-09-04T06:39:01Z</time>
</trkpt>
<trkpt lat="46.511910000" lon="-72.763120000">
<ele>0</ele>
<time>2026-09-04T06:39:02Z</time>
</trkpt>
<trkpt lat="46.511910000" lon="-72.763120000">
<ele>0</ele>
<time>2026-09-04T06:39:03Z</time>
</trkpt>
<trkpt lat="46.510810000" lon="-72.762620000">
<ele>0</ele>
<time>2026-09-04T06:39:04Z</time>
</trkpt>
<trkpt lat="46.510120000" lon="-72.762310000">
<ele>0</ele>
<time>2026-09-04T06:39:05Z</time>
</trkpt>
<trkpt lat="46.508920000" lon="-72.761730000">
<ele>0</ele>
<time>2026-09-04T06:39:06Z</time>
</trkpt>
<trkpt lat="46.508250000" lon="-72.761350000">
<ele>0</ele>
<time>2026-09-04T06:39:07Z</time>
</trkpt>
<trkpt lat="46.507460000" lon="-72.760770000">
<ele>0</ele>
<time>2026-09-04T06:39:08Z</time>
</trkpt>
<trkpt lat="46.507150000" lon="-72.760530000">
<ele>0</ele>
<time>2026-09-04T06:39:09Z</time>
</trkpt>
<trkpt lat="46.507060000" lon="-72.760410000">
<ele>0</ele>
<time>2026-09-04T06:39:10Z</time>
</trkpt>
<trkpt lat="46.507020000" lon="-72.760330000">
<ele>0</ele>
<time>2026-09-04T06:39:11Z</time>
</trkpt>
<trkpt lat="46.506910000" lon="-72.760360000">
<ele>0</ele>
<time>2026-09-04T06:39:12Z</time>
</trkpt>
<trkpt lat="46.506910000" lon="-72.760360000">
<ele>0</ele>
<time>2026-09-04T06:39:13Z</time>
</trkpt>
<trkpt lat="46.505650000" lon="-72.760670000">
<ele>0</ele>
<time>2026-09-04T06:39:14Z</time>
</trkpt>
<trkpt lat="46.504420000" lon="-72.760890000">
<ele>0</ele>
<time>2026-09-04T06:39:15Z</time>
</trkpt>
<trkpt lat="46.501670000" lon="-72.761390000">
<ele>0</ele>
<time>2026-09-04T06:39:16Z</time>
</trkpt>
<trkpt lat="46.501560000" lon="-72.761410000">
<ele>0</ele>
<time>2026-09-04T06:39:17Z</time>
</trkpt>
<trkpt lat="46.501130000" lon="-72.761400000">
<ele>0</ele>
<time>2026-09-04T06:39:18Z</time>
</trkpt>
<trkpt lat="46.500020000" lon="-72.761370000">
<ele>0</ele>
<time>2026-09-04T06:39:19Z</time>
</trkpt>
<trkpt lat="46.499640000" lon="-72.761370000">
<ele>0</ele>
<time>2026-09-04T06:39:20Z</time>
</trkpt>
<trkpt lat="46.499370000" lon="-72.761390000">
<ele>0</ele>
<time>2026-09-04T06:39:21Z</time>
</trkpt>
<trkpt lat="46.499260000" lon="-72.761450000">
<ele>0</ele>
<time>2026-09-04T06:39:22Z</time>
</trkpt>
<trkpt lat="46.498980000" lon="-72.761750000">
<ele>0</ele>
<time>2026-09-04T06:39:23Z</time>
</trkpt>
<trkpt lat="46.498640000" lon="-72.762210000">
<ele>0</ele>
<time>2026-09-04T06:39:24Z</time>
</trkpt>
<trkpt lat="46.498100000" lon="-72.762910000">
<ele>0</ele>
<time>2026-09-04T06:39:25Z</time>
</trkpt>
<trkpt lat="46.497960000" lon="-72.763010000">
<ele>0</ele>
<time>2026-09-04T06:39:26Z</time>
</trkpt>
<trkpt lat="46.497830000" lon="-72.763080000">
<ele>0</ele>
<time>2026-09-04T06:39:27Z</time>
</trkpt>
<trkpt lat="46.497660000" lon="-72.763150000">
<ele>0</ele>
<time>2026-09-04T06:39:28Z</time>
</trkpt>
<trkpt lat="46.497510000" lon="-72.763170000">
<ele>0</ele>
<time>2026-09-04T06:39:29Z</time>
</trkpt>
<trkpt lat="46.496870000" lon="-72.763200000">
<ele>0</ele>
<time>2026-09-04T06:39:30Z</time>
</trkpt>
<trkpt lat="46.495080000" lon="-72.763230000">
<ele>0</ele>
<time>2026-09-04T06:39:31Z</time>
</trkpt>
<trkpt lat="46.494900000" lon="-72.763240000">
<ele>0</ele>
<time>2026-09-04T06:39:32Z</time>
</trkpt>
<trkpt lat="46.494550000" lon="-72.763300000">
<ele>0</ele>
<time>2026-09-04T06:39:33Z</time>
</trkpt>
<trkpt lat="46.493840000" lon="-72.763540000">
<ele>0</ele>
<time>2026-09-04T06:39:34Z</time>
</trkpt>
<trkpt lat="46.492790000" lon="-72.763900000">
<ele>0</ele>
<time>2026-09-04T06:39:35Z</time>
</trkpt>
<trkpt lat="46.492170000" lon="-72.764110000">
<ele>0</ele>
<time>2026-09-04T06:39:36Z</time>
</trkpt>
<trkpt lat="46.491890000" lon="-72.764100000">
<ele>0</ele>
<time>2026-09-04T06:39:37Z</time>
</trkpt>
<trkpt lat="46.491520000" lon="-72.763990000">
<ele>0</ele>
<time>2026-09-04T06:39:38Z</time>
</trkpt>
<trkpt lat="46.491300000" lon="-72.763880000">
<ele>0</ele>
<time>2026-09-04T06:39:39Z</time>
</trkpt>
<trkpt lat="46.490960000" lon="-72.763700000">
<ele>0</ele>
<time>2026-09-04T06:39:40Z</time>
</trkpt>
<trkpt lat="46.490470000" lon="-72.763440000">
<ele>0</ele>
<time>2026-09-04T06:39:41Z</time>
</trkpt>
<trkpt lat="46.490110000" lon="-72.763290000">
<ele>0</ele>
<time>2026-09-04T06:39:42Z</time>
</trkpt>
<trkpt lat="46.489740000" lon="-72.763130000">
<ele>0</ele>
<time>2026-09-04T06:39:43Z</time>
</trkpt>
<trkpt lat="46.488910000" lon="-72.762740000">
<ele>0</ele>
<time>2026-09-04T06:39:44Z</time>
</trkpt>
<trkpt lat="46.488740000" lon="-72.762640000">
<ele>0</ele>
<time>2026-09-04T06:39:45Z</time>
</trkpt>
<trkpt lat="46.488580000" lon="-72.762520000">
<ele>0</ele>
<time>2026-09-04T06:39:46Z</time>
</trkpt>
<trkpt lat="46.488340000" lon="-72.762290000">
<ele>0</ele>
<time>2026-09-04T06:39:47Z</time>
</trkpt>
<trkpt lat="46.487820000" lon="-72.761830000">
<ele>0</ele>
<time>2026-09-04T06:39:48Z</time>
</trkpt>
<trkpt lat="46.487340000" lon="-72.761410000">
<ele>0</ele>
<time>2026-09-04T06:39:49Z</time>
</trkpt>
<trkpt lat="46.486220000" lon="-72.760670000">
<ele>0</ele>
<time>2026-09-04T06:39:50Z</time>
</trkpt>
<trkpt lat="46.485740000" lon="-72.760390000">
<ele>0</ele>
<time>2026-09-04T06:39:51Z</time>
</trkpt>
<trkpt lat="46.485410000" lon="-72.760200000">
<ele>0</ele>
<time>2026-09-04T06:39:52Z</time>
</trkpt>
<trkpt lat="46.485230000" lon="-72.760130000">
<ele>0</ele>
<time>2026-09-04T06:39:53Z</time>
</trkpt>
<trkpt lat="46.485020000" lon="-72.760060000">
<ele>0</ele>
<time>2026-09-04T06:39:54Z</time>
</trkpt>
<trkpt lat="46.484760000" lon="-72.760010000">
<ele>0</ele>
<time>2026-09-04T06:39:55Z</time>
</trkpt>
<trkpt lat="46.484160000" lon="-72.759970000">
<ele>0</ele>
<time>2026-09-04T06:39:56Z</time>
</trkpt>
<trkpt lat="46.483990000" lon="-72.759950000">
<ele>0</ele>
<time>2026-09-04T06:39:57Z</time>
</trkpt>
<trkpt lat="46.483810000" lon="-72.759890000">
<ele>0</ele>
<time>2026-09-04T06:39:58Z</time>
</trkpt>
<trkpt lat="46.483640000" lon="-72.759810000">
<ele>0</ele>
<time>2026-09-04T06:39:59Z</time>
</trkpt>
<trkpt lat="46.483420000" lon="-72.759610000">
<ele>0</ele>
<time>2026-09-04T06:40:00Z</time>
</trkpt>
<trkpt lat="46.483330000" lon="-72.759510000">
<ele>0</ele>
<time>2026-09-04T06:40:01Z</time>
</trkpt>
<trkpt lat="46.483230000" lon="-72.759320000">
<ele>0</ele>
<time>2026-09-04T06:40:02Z</time>
</trkpt>
<trkpt lat="46.483110000" lon="-72.759070000">
<ele>0</ele>
<time>2026-09-04T06:40:03Z</time>
</trkpt>
<trkpt lat="46.482970000" lon="-72.758640000">
<ele>0</ele>
<time>2026-09-04T06:40:04Z</time>
</trkpt>
<trkpt lat="46.482730000" lon="-72.757650000">
<ele>0</ele>
<time>2026-09-04T06:40:05Z</time>
</trkpt>
<trkpt lat="46.482450000" lon="-72.756690000">
<ele>0</ele>
<time>2026-09-04T06:40:06Z</time>
</trkpt>
<trkpt lat="46.482380000" lon="-72.756440000">
<ele>0</ele>
<time>2026-09-04T06:40:07Z</time>
</trkpt>
<trkpt lat="46.481900000" lon="-72.754710000">
<ele>0</ele>
<time>2026-09-04T06:40:08Z</time>
</trkpt>
<trkpt lat="46.481750000" lon="-72.754280000">
<ele>0</ele>
<time>2026-09-04T06:40:09Z</time>
</trkpt>
<trkpt lat="46.481680000" lon="-72.754040000">
<ele>0</ele>
<time>2026-09-04T06:40:10Z</time>
</trkpt>
<trkpt lat="46.481840000" lon="-72.753970000">
<ele>0</ele>
<time>2026-09-04T06:40:11Z</time>
</trkpt>
<trkpt lat="46.481880000" lon="-72.753950000">
<ele>0</ele>
<time>2026-09-04T06:40:12Z</time>
</trkpt>
<trkpt lat="46.481880000" lon="-72.753950000">
<ele>0</ele>
<time>2026-09-04T06:40:13Z</time>
</trkpt>
<trkpt lat="46.482170000" lon="-72.753850000">
<ele>0</ele>
<time>2026-09-04T06:40:14Z</time>
</trkpt>
<trkpt lat="46.482330000" lon="-72.753750000">
<ele>0</ele>
<time>2026-09-04T06:40:15Z</time>
</trkpt>
<trkpt lat="46.483320000" lon="-72.752110000">
<ele>0</ele>
<time>2026-09-04T06:40:16Z</time>
</trkpt>
<trkpt lat="46.484150000" lon="-72.750710000">
<ele>0</ele>
<time>2026-09-04T06:40:17Z</time>
</trkpt>
<trkpt lat="46.484170000" lon="-72.750590000">
<ele>0</ele>
<time>2026-09-04T06:40:18Z</time>
</trkpt>
<trkpt lat="46.484160000" lon="-72.750470000">
<ele>0</ele>
<time>2026-09-04T06:40:19Z</time>
</trkpt>
<trkpt lat="46.483640000" lon="-72.749400000">
<ele>0</ele>
<time>2026-09-04T06:40:20Z</time>
</trkpt>
<trkpt lat="46.483320000" lon="-72.748720000">
<ele>0</ele>
<time>2026-09-04T06:40:21Z</time>
</trkpt>
<trkpt lat="46.483300000" lon="-72.748580000">
<ele>0</ele>
<time>2026-09-04T06:40:22Z</time>
</trkpt>
<trkpt lat="46.483310000" lon="-72.748470000">
<ele>0</ele>
<time>2026-09-04T06:40:23Z</time>
</trkpt>
<trkpt lat="46.483400000" lon="-72.748270000">
<ele>0</ele>
<time>2026-09-04T06:40:24Z</time>
</trkpt>
<trkpt lat="46.485620000" lon="-72.745240000">
<ele>0</ele>
<time>2026-09-04T06:40:25Z</time>
</trkpt>
<trkpt lat="46.488770000" lon="-72.740950000">
<ele>0</ele>
<time>2026-09-04T06:40:26Z</time>
</trkpt>
<trkpt lat="46.491020000" lon="-72.737870000">
<ele>0</ele>
<time>2026-09-04T06:40:27Z</time>
</trkpt>
<trkpt lat="46.493710000" lon="-72.734140000">
<ele>0</ele>
<time>2026-09-04T06:40:28Z</time>
</trkpt>
<trkpt lat="46.496950000" lon="-72.729600000">
<ele>0</ele>
<time>2026-09-04T06:40:29Z</time>
</trkpt>
<trkpt lat="46.497700000" lon="-72.728560000">
<ele>0</ele>
<time>2026-09-04T06:40:30Z</time>
</trkpt>
<trkpt lat="46.498330000" lon="-72.727700000">
<ele>0</ele>
<time>2026-09-04T06:40:31Z</time>
</trkpt>
<trkpt lat="46.498410000" lon="-72.727610000">
<ele>0</ele>
<time>2026-09-04T06:40:32Z</time>
</trkpt>
<trkpt lat="46.498980000" lon="-72.727290000">
<ele>0</ele>
<time>2026-09-04T06:40:33Z</time>
</trkpt>
<trkpt lat="46.499350000" lon="-72.727090000">
<ele>0</ele>
<time>2026-09-04T06:40:34Z</time>
</trkpt>
<trkpt lat="46.499500000" lon="-72.726970000">
<ele>0</ele>
<time>2026-09-04T06:40:35Z</time>
</trkpt>
<trkpt lat="46.499810000" lon="-72.726680000">
<ele>0</ele>
<time>2026-09-04T06:40:36Z</time>
</trkpt>
<trkpt lat="46.500400000" lon="-72.726070000">
<ele>0</ele>
<time>2026-09-04T06:40:37Z</time>
</trkpt>
<trkpt lat="46.501210000" lon="-72.725200000">
<ele>0</ele>
<time>2026-09-04T06:40:38Z</time>
</trkpt>
<trkpt lat="46.501290000" lon="-72.725320000">
<ele>0</ele>
<time>2026-09-04T06:40:39Z</time>
</trkpt>
<trkpt lat="46.501290000" lon="-72.725320000">
<ele>0</ele>
<time>2026-09-04T06:40:40Z</time>
</trkpt>
<trkpt lat="46.502840000" lon="-72.727630000">
<ele>0</ele>
<time>2026-09-04T06:40:41Z</time>
</trkpt>
<trkpt lat="46.504170000" lon="-72.729560000">
<ele>0</ele>
<time>2026-09-04T06:40:42Z</time>
</trkpt>
<trkpt lat="46.505050000" lon="-72.730820000">
<ele>0</ele>
<time>2026-09-04T06:40:43Z</time>
</trkpt>
<trkpt lat="46.505100000" lon="-72.730900000">
<ele>0</ele>
<time>2026-09-04T06:40:44Z</time>
</trkpt>
<trkpt lat="46.505230000" lon="-72.730940000">
<ele>0</ele>
<time>2026-09-04T06:40:45Z</time>
</trkpt>
<trkpt lat="46.505280000" lon="-72.730960000">
<ele>0</ele>
<time>2026-09-04T06:40:46Z</time>
</trkpt>
<trkpt lat="46.505280000" lon="-72.730960000">
<ele>0</ele>
<time>2026-09-04T06:40:47Z</time>
</trkpt>
<trkpt lat="46.505570000" lon="-72.731100000">
<ele>0</ele>
<time>2026-09-04T06:40:48Z</time>
</trkpt>
<trkpt lat="46.505770000" lon="-72.731210000">
<ele>0</ele>
<time>2026-09-04T06:40:49Z</time>
</trkpt>
<trkpt lat="46.507660000" lon="-72.731800000">
<ele>0</ele>
<time>2026-09-04T06:40:50Z</time>
</trkpt>
<trkpt lat="46.508170000" lon="-72.731980000">
<ele>0</ele>
<time>2026-09-04T06:40:51Z</time>
</trkpt>
<trkpt lat="46.510810000" lon="-72.732850000">
<ele>0</ele>
<time>2026-09-04T06:40:52Z</time>
</trkpt>
<trkpt lat="46.510930000" lon="-72.732890000">
<ele>0</ele>
<time>2026-09-04T06:40:53Z</time>
</trkpt>
<trkpt lat="46.510980000" lon="-72.732820000">
<ele>0</ele>
<time>2026-09-04T06:40:54Z</time>
</trkpt>
<trkpt lat="46.510980000" lon="-72.732820000">
<ele>0</ele>
<time>2026-09-04T06:40:55Z</time>
</trkpt>
<trkpt lat="46.511650000" lon="-72.731830000">
<ele>0</ele>
<time>2026-09-04T06:40:56Z</time>
</trkpt>
<trkpt lat="46.512000000" lon="-72.731240000">
<ele>0</ele>
<time>2026-09-04T06:40:57Z</time>
</trkpt>
<trkpt lat="46.512070000" lon="-72.731160000">
<ele>0</ele>
<time>2026-09-04T06:40:58Z</time>
</trkpt>
<trkpt lat="46.512190000" lon="-72.731060000">
<ele>0</ele>
<time>2026-09-04T06:40:59Z</time>
</trkpt>
<trkpt lat="46.512260000" lon="-72.731030000">
<ele>0</ele>
<time>2026-09-04T06:41:00Z</time>
</trkpt>
<trkpt lat="46.512280000" lon="-72.731040000">
<ele>0</ele>
<time>2026-09-04T06:41:01Z</time>
</trkpt>
<trkpt lat="46.512310000" lon="-72.731060000">
<ele>0</ele>
<time>2026-09-04T06:41:02Z</time>
</trkpt>
<trkpt lat="46.512310000" lon="-72.731060000">
<ele>0</ele>
<time>2026-09-04T06:41:03Z</time>
</trkpt>
<trkpt lat="46.512690000" lon="-72.731570000">
<ele>0</ele>
<time>2026-09-04T06:41:04Z</time>
</trkpt>
<trkpt lat="46.513060000" lon="-72.732100000">
<ele>0</ele>
<time>2026-09-04T06:41:05Z</time>
</trkpt>
<trkpt lat="46.513800000" lon="-72.733280000">
<ele>0</ele>
<time>2026-09-04T06:41:06Z</time>
</trkpt>
<trkpt lat="46.515290000" lon="-72.735300000">
<ele>0</ele>
<time>2026-09-04T06:41:07Z</time>
</trkpt>
<trkpt lat="46.515550000" lon="-72.735670000">
<ele>0</ele>
<time>2026-09-04T06:41:08Z</time>
</trkpt>
<trkpt lat="46.515770000" lon="-72.736010000">
<ele>0</ele>
<time>2026-09-04T06:41:09Z</time>
</trkpt>
<trkpt lat="46.516490000" lon="-72.737040000">
<ele>0</ele>
<time>2026-09-04T06:41:10Z</time>
</trkpt>
<trkpt lat="46.516520000" lon="-72.736980000">
<ele>0</ele>
<time>2026-09-04T06:41:11Z</time>
</trkpt>
<trkpt lat="46.516520000" lon="-72.736980000">
<ele>0</ele>
<time>2026-09-04T06:41:12Z</time>
</trkpt>
<trkpt lat="46.517920000" lon="-72.735050000">
<ele>0</ele>
<time>2026-09-04T06:41:13Z</time>
</trkpt>
<trkpt lat="46.518770000" lon="-72.733890000">
<ele>0</ele>
<time>2026-09-04T06:41:14Z</time>
</trkpt>
<trkpt lat="46.518800000" lon="-72.733880000">
<ele>0</ele>
<time>2026-09-04T06:41:15Z</time>
</trkpt>
<trkpt lat="46.518840000" lon="-72.733920000">
<ele>0</ele>
<time>2026-09-04T06:41:16Z</time>
</trkpt>
<trkpt lat="46.518840000" lon="-72.733920000">
<ele>0</ele>
<time>2026-09-04T06:41:17Z</time>
</trkpt>
<trkpt lat="46.520290000" lon="-72.736030000">
<ele>0</ele>
<time>2026-09-04T06:41:18Z</time>
</trkpt>
<trkpt lat="46.520800000" lon="-72.736700000">
<ele>0</ele>
<time>2026-09-04T06:41:19Z</time>
</trkpt>
<trkpt lat="46.521440000" lon="-72.737710000">
<ele>0</ele>
<time>2026-09-04T06:41:20Z</time>
</trkpt>
<trkpt lat="46.522040000" lon="-72.738580000">
<ele>0</ele>
<time>2026-09-04T06:41:21Z</time>
</trkpt>
<trkpt lat="46.522090000" lon="-72.738500000">
<ele>0</ele>
<time>2026-09-04T06:41:22Z</time>
</trkpt>
<trkpt lat="46.522090000" lon="-72.738500000">
<ele>0</ele>
<time>2026-09-04T06:41:23Z</time>
</trkpt>
<trkpt lat="46.524400000" lon="-72.735100000">
<ele>0</ele>
<time>2026-09-04T06:41:24Z</time>
</trkpt>
<trkpt lat="46.525180000" lon="-72.733930000">
<ele>0</ele>
<time>2026-09-04T06:41:25Z</time>
</trkpt>
<trkpt lat="46.526120000" lon="-72.732580000">
<ele>0</ele>
<time>2026-09-04T06:41:26Z</time>
</trkpt>
<trkpt lat="46.527540000" lon="-72.730540000">
<ele>0</ele>
<time>2026-09-04T06:41:27Z</time>
</trkpt>
<trkpt lat="46.528550000" lon="-72.729050000">
<ele>0</ele>
<time>2026-09-04T06:41:28Z</time>
</trkpt>
<trkpt lat="46.530610000" lon="-72.726030000">
<ele>0</ele>
<time>2026-09-04T06:41:29Z</time>
</trkpt>
<trkpt lat="46.532060000" lon="-72.723850000">
<ele>0</ele>
<time>2026-09-04T06:41:30Z</time>
</trkpt>
<trkpt lat="46.534240000" lon="-72.720660000">
<ele>0</ele>
<time>2026-09-04T06:41:31Z</time>
</trkpt>
<trkpt lat="46.534740000" lon="-72.719920000">
<ele>0</ele>
<time>2026-09-04T06:41:32Z</time>
</trkpt>
<trkpt lat="46.538030000" lon="-72.715090000">
<ele>0</ele>
<time>2026-09-04T06:41:33Z</time>
</trkpt>
<trkpt lat="46.538910000" lon="-72.713840000">
<ele>0</ele>
<time>2026-09-04T06:41:34Z</time>
</trkpt>
<trkpt lat="46.539960000" lon="-72.712350000">
<ele>0</ele>
<time>2026-09-04T06:41:35Z</time>
</trkpt>
<trkpt lat="46.541200000" lon="-72.710570000">
<ele>0</ele>
<time>2026-09-04T06:41:36Z</time>
</trkpt>
<trkpt lat="46.541420000" lon="-72.710230000">
<ele>0</ele>
<time>2026-09-04T06:41:37Z</time>
</trkpt>
<trkpt lat="46.541700000" lon="-72.709770000">
<ele>0</ele>
<time>2026-09-04T06:41:38Z</time>
</trkpt>
<trkpt lat="46.541980000" lon="-72.709190000">
<ele>0</ele>
<time>2026-09-04T06:41:39Z</time>
</trkpt>
<trkpt lat="46.542170000" lon="-72.708740000">
<ele>0</ele>
<time>2026-09-04T06:41:40Z</time>
</trkpt>
<trkpt lat="46.542390000" lon="-72.708130000">
<ele>0</ele>
<time>2026-09-04T06:41:41Z</time>
</trkpt>
<trkpt lat="46.543300000" lon="-72.705180000">
<ele>0</ele>
<time>2026-09-04T06:41:42Z</time>
</trkpt>
<trkpt lat="46.543610000" lon="-72.704170000">
<ele>0</ele>
<time>2026-09-04T06:41:43Z</time>
</trkpt>
<trkpt lat="46.543780000" lon="-72.703720000">
<ele>0</ele>
<time>2026-09-04T06:41:44Z</time>
</trkpt>
<trkpt lat="46.543910000" lon="-72.703450000">
<ele>0</ele>
<time>2026-09-04T06:41:45Z</time>
</trkpt>
<trkpt lat="46.544220000" lon="-72.702970000">
<ele>0</ele>
<time>2026-09-04T06:41:46Z</time>
</trkpt>
<trkpt lat="46.544470000" lon="-72.702690000">
<ele>0</ele>
<time>2026-09-04T06:41:47Z</time>
</trkpt>
<trkpt lat="46.544660000" lon="-72.702520000">
<ele>0</ele>
<time>2026-09-04T06:41:48Z</time>
</trkpt>
<trkpt lat="46.545090000" lon="-72.702190000">
<ele>0</ele>
<time>2026-09-04T06:41:49Z</time>
</trkpt>
<trkpt lat="46.545970000" lon="-72.701630000">
<ele>0</ele>
<time>2026-09-04T06:41:50Z</time>
</trkpt>
<trkpt lat="46.547430000" lon="-72.700630000">
<ele>0</ele>
<time>2026-09-04T06:41:51Z</time>
</trkpt>
<trkpt lat="46.548400000" lon="-72.699940000">
<ele>0</ele>
<time>2026-09-04T06:41:52Z</time>
</trkpt>
<trkpt lat="46.548710000" lon="-72.699710000">
<ele>0</ele>
<time>2026-09-04T06:41:53Z</time>
</trkpt>
<trkpt lat="46.548870000" lon="-72.699550000">
<ele>0</ele>
<time>2026-09-04T06:41:54Z</time>
</trkpt>
<trkpt lat="46.549290000" lon="-72.699050000">
<ele>0</ele>
<time>2026-09-04T06:41:55Z</time>
</trkpt>
<trkpt lat="46.549550000" lon="-72.698700000">
<ele>0</ele>
<time>2026-09-04T06:41:56Z</time>
</trkpt>
<trkpt lat="46.550320000" lon="-72.697590000">
<ele>0</ele>
<time>2026-09-04T06:41:57Z</time>
</trkpt>
<trkpt lat="46.552860000" lon="-72.693930000">
<ele>0</ele>
<time>2026-09-04T06:41:58Z</time>
</trkpt>
<trkpt lat="46.556470000" lon="-72.688820000">
<ele>0</ele>
<time>2026-09-04T06:41:59Z</time>
</trkpt>
<trkpt lat="46.559550000" lon="-72.684430000">
<ele>0</ele>
<time>2026-09-04T06:42:00Z</time>
</trkpt>
<trkpt lat="46.562780000" lon="-72.679820000">
<ele>0</ele>
<time>2026-09-04T06:42:01Z</time>
</trkpt>
<trkpt lat="46.563350000" lon="-72.678980000">
<ele>0</ele>
<time>2026-09-04T06:42:02Z</time>
</trkpt>
<trkpt lat="46.565560000" lon="-72.675840000">
<ele>0</ele>
<time>2026-09-04T06:42:03Z</time>
</trkpt>
<trkpt lat="46.568510000" lon="-72.671630000">
<ele>0</ele>
<time>2026-09-04T06:42:04Z</time>
</trkpt>
<trkpt lat="46.569210000" lon="-72.670640000">
<ele>0</ele>
<time>2026-09-04T06:42:05Z</time>
</trkpt>
<trkpt lat="46.570130000" lon="-72.669420000">
<ele>0</ele>
<time>2026-09-04T06:42:06Z</time>
</trkpt>
<trkpt lat="46.571100000" lon="-72.668270000">
<ele>0</ele>
<time>2026-09-04T06:42:07Z</time>
</trkpt>
<trkpt lat="46.571660000" lon="-72.667520000">
<ele>0</ele>
<time>2026-09-04T06:42:08Z</time>
</trkpt>
<trkpt lat="46.572180000" lon="-72.666760000">
<ele>0</ele>
<time>2026-09-04T06:42:09Z</time>
</trkpt>
<trkpt lat="46.572860000" lon="-72.665660000">
<ele>0</ele>
<time>2026-09-04T06:42:10Z</time>
</trkpt>
<trkpt lat="46.573360000" lon="-72.664790000">
<ele>0</ele>
<time>2026-09-04T06:42:11Z</time>
</trkpt>
<trkpt lat="46.573530000" lon="-72.664520000">
<ele>0</ele>
<time>2026-09-04T06:42:12Z</time>
</trkpt>
<trkpt lat="46.573990000" lon="-72.663780000">
<ele>0</ele>
<time>2026-09-04T06:42:13Z</time>
</trkpt>
<trkpt lat="46.574350000" lon="-72.663250000">
<ele>0</ele>
<time>2026-09-04T06:42:14Z</time>
</trkpt>
<trkpt lat="46.576060000" lon="-72.660810000">
<ele>0</ele>
<time>2026-09-04T06:42:15Z</time>
</trkpt>
<trkpt lat="46.578500000" lon="-72.657310000">
<ele>0</ele>
<time>2026-09-04T06:42:16Z</time>
</trkpt>
<trkpt lat="46.583440000" lon="-72.650230000">
<ele>0</ele>
<time>2026-09-04T06:42:17Z</time>
</trkpt>
<trkpt lat="46.585810000" lon="-72.646860000">
<ele>0</ele>
<time>2026-09-04T06:42:18Z</time>
</trkpt>
<trkpt lat="46.588780000" lon="-72.642620000">
<ele>0</ele>
<time>2026-09-04T06:42:19Z</time>
</trkpt>
<trkpt lat="46.590340000" lon="-72.640410000">
<ele>0</ele>
<time>2026-09-04T06:42:20Z</time>
</trkpt>
<trkpt lat="46.591360000" lon="-72.638910000">
<ele>0</ele>
<time>2026-09-04T06:42:21Z</time>
</trkpt>
<trkpt lat="46.592600000" lon="-72.637120000">
<ele>0</ele>
<time>2026-09-04T06:42:22Z</time>
</trkpt>
<trkpt lat="46.594860000" lon="-72.633860000">
<ele>0</ele>
<time>2026-09-04T06:42:23Z</time>
</trkpt>
<trkpt lat="46.594940000" lon="-72.633980000">
<ele>0</ele>
<time>2026-09-04T06:42:24Z</time>
</trkpt>
<trkpt lat="46.594940000" lon="-72.633980000">
<ele>0</ele>
<time>2026-09-04T06:42:25Z</time>
</trkpt>
<trkpt lat="46.597820000" lon="-72.638180000">
<ele>0</ele>
<time>2026-09-04T06:42:26Z</time>
</trkpt>
<trkpt lat="46.599200000" lon="-72.640090000">
<ele>0</ele>
<time>2026-09-04T06:42:27Z</time>
</trkpt>
<trkpt lat="46.599860000" lon="-72.641140000">
<ele>0</ele>
<time>2026-09-04T06:42:28Z</time>
</trkpt>
<trkpt lat="46.600330000" lon="-72.641890000">
<ele>0</ele>
<time>2026-09-04T06:42:29Z</time>
</trkpt>
<trkpt lat="46.601230000" lon="-72.643210000">
<ele>0</ele>
<time>2026-09-04T06:42:30Z</time>
</trkpt>
<trkpt lat="46.602240000" lon="-72.644700000">
<ele>0</ele>
<time>2026-09-04T06:42:31Z</time>
</trkpt>
<trkpt lat="46.602640000" lon="-72.645290000">
<ele>0</ele>
<time>2026-09-04T06:42:32Z</time>
</trkpt>
<trkpt lat="46.602710000" lon="-72.645360000">
<ele>0</ele>
<time>2026-09-04T06:42:33Z</time>
</trkpt>
<trkpt lat="46.602750000" lon="-72.645370000">
<ele>0</ele>
<time>2026-09-04T06:42:34Z</time>
</trkpt>
<trkpt lat="46.602820000" lon="-72.645300000">
<ele>0</ele>
<time>2026-09-04T06:42:35Z</time>
</trkpt>
<trkpt lat="46.602820000" lon="-72.645300000">
<ele>0</ele>
<time>2026-09-04T06:42:36Z</time>
</trkpt>
<trkpt lat="46.603800000" lon="-72.643830000">
<ele>0</ele>
<time>2026-09-04T06:42:37Z</time>
</trkpt>
<trkpt lat="46.604290000" lon="-72.643140000">
<ele>0</ele>
<time>2026-09-04T06:42:38Z</time>
</trkpt>
<trkpt lat="46.605870000" lon="-72.640920000">
<ele>0</ele>
<time>2026-09-04T06:42:39Z</time>
</trkpt>
<trkpt lat="46.606960000" lon="-72.639390000">
<ele>0</ele>
<time>2026-09-04T06:42:40Z</time>
</trkpt>
<trkpt lat="46.608490000" lon="-72.637190000">
<ele>0</ele>
<time>2026-09-04T06:42:41Z</time>
</trkpt>
<trkpt lat="46.610420000" lon="-72.634410000">
<ele>0</ele>
<time>2026-09-04T06:42:42Z</time>
</trkpt>
<trkpt lat="46.611340000" lon="-72.633150000">
<ele>0</ele>
<time>2026-09-04T06:42:43Z</time>
</trkpt>
<trkpt lat="46.611820000" lon="-72.632460000">
<ele>0</ele>
<time>2026-09-04T06:42:44Z</time>
</trkpt>
<trkpt lat="46.612230000" lon="-72.631880000">
<ele>0</ele>
<time>2026-09-04T06:42:45Z</time>
</trkpt>
<trkpt lat="46.612670000" lon="-72.631230000">
<ele>0</ele>
<time>2026-09-04T06:42:46Z</time>
</trkpt>
<trkpt lat="46.612600000" lon="-72.631160000">
<ele>0</ele>
<time>2026-09-04T06:42:47Z</time>
</trkpt>
<trkpt lat="46.612600000" lon="-72.631160000">
<ele>0</ele>
<time>2026-09-04T06:42:48Z</time>
</trkpt>
<trkpt lat="46.611900000" lon="-72.630440000">
<ele>0</ele>
<time>2026-09-04T06:42:49Z</time>
</trkpt>
<trkpt lat="46.611450000" lon="-72.629970000">
<ele>0</ele>
<time>2026-09-04T06:42:50Z</time>
</trkpt>
<trkpt lat="46.611000000" lon="-72.629440000">
<ele>0</ele>
<time>2026-09-04T06:42:51Z</time>
</trkpt>
<trkpt lat="46.610090000" lon="-72.628240000">
<ele>0</ele>
<time>2026-09-04T06:42:52Z</time>
</trkpt>
<trkpt lat="46.609430000" lon="-72.627360000">
<ele>0</ele>
<time>2026-09-04T06:42:53Z</time>
</trkpt>
<trkpt lat="46.609290000" lon="-72.627170000">
<ele>0</ele>
<time>2026-09-04T06:42:54Z</time>
</trkpt>
</trkseg>
</trk>
</gpx>
